<?xml version="1.0" encoding="utf-8"?>
<gpx xmlns:xsi="http://www.w3.org/2001/XMLSchema-instance" xmlns:xsd="http://www.w3.org/2001/XMLSchema" version="1.1" creator="Shapelink.com" xmlns="http://www.topografix.com/GPX/1/1" xmlns:gpxtpx="http://www.garmin.com/xmlschemas/TrackPointExtension/v1">
  <metadata>
    <name>Löpning 10.05 km, 2011-05-31</name>
    <desc></desc>
    <author><name>Jojje Borssén</name></author> 
    <time>2011-05-31T14:41:05Z</time>
  </metadata>
  <trk>
    <name>Löpning 10.05 km, 2011-05-31</name>
    <trkseg>
      <trkpt lat="41.3701679018" lon="2.18922973662">
        <ele>163.4</ele>
        <time>2011-05-31T14:41:05Z</time>
      </trkpt>
      <trkpt lat="41.3703129087" lon="2.18914189431">
        <ele>154.4</ele>
        <time>2011-05-31T14:41:11Z</time>
      </trkpt>
      <trkpt lat="41.3705439976" lon="2.18915907721">
        <ele>143.8</ele>
        <time>2011-05-31T14:41:19Z</time>
      </trkpt>
      <trkpt lat="41.3707108813" lon="2.18919537083">
        <ele>132.8</ele>
        <time>2011-05-31T14:41:25Z</time>
      </trkpt>
      <trkpt lat="41.3709079397" lon="2.18923593923">
        <ele>121.6</ele>
        <time>2011-05-31T14:41:32Z</time>
      </trkpt>
      <trkpt lat="41.3710831214" lon="2.18916251378">
        <ele>112.6</ele>
        <time>2011-05-31T14:41:39Z</time>
      </trkpt>
      <trkpt lat="41.3712941777" lon="2.18911591042">
        <ele>97</ele>
        <time>2011-05-31T14:41:47Z</time>
      </trkpt>
      <trkpt lat="41.3714264441" lon="2.18911247384">
        <ele>87.2</ele>
        <time>2011-05-31T14:41:51Z</time>
      </trkpt>
      <trkpt lat="41.3715601354" lon="2.18911850881">
        <ele>77.8</ele>
        <time>2011-05-31T14:41:57Z</time>
      </trkpt>
      <trkpt lat="41.3717479738" lon="2.18912940528">
        <ele>66.4</ele>
        <time>2011-05-31T14:42:03Z</time>
      </trkpt>
      <trkpt lat="41.3719472115" lon="2.18914901893">
        <ele>57.4</ele>
        <time>2011-05-31T14:42:11Z</time>
      </trkpt>
      <trkpt lat="41.3720698387" lon="2.18914893511">
        <ele>52.4</ele>
        <time>2011-05-31T14:42:15Z</time>
      </trkpt>
      <trkpt lat="41.3722524803" lon="2.18916972222">
        <ele>46.2</ele>
        <time>2011-05-31T14:42:22Z</time>
      </trkpt>
      <trkpt lat="41.3724401511" lon="2.18919319154">
        <ele>41.4</ele>
        <time>2011-05-31T14:42:29Z</time>
      </trkpt>
      <trkpt lat="41.3727255548" lon="2.18923040717">
        <ele>36.6</ele>
        <time>2011-05-31T14:42:40Z</time>
      </trkpt>
      <trkpt lat="41.3729962901" lon="2.18929151122">
        <ele>32.8</ele>
        <time>2011-05-31T14:42:50Z</time>
      </trkpt>
      <trkpt lat="41.3731910017" lon="2.18932017732">
        <ele>30.6</ele>
        <time>2011-05-31T14:42:57Z</time>
      </trkpt>
      <trkpt lat="41.3733546163" lon="2.18934347901">
        <ele>29.8</ele>
        <time>2011-05-31T14:43:02Z</time>
      </trkpt>
      <trkpt lat="41.373533989" lon="2.1893637632">
        <ele>29.2</ele>
        <time>2011-05-31T14:43:07Z</time>
      </trkpt>
      <trkpt lat="41.3737001183" lon="2.18937004963">
        <ele>29</ele>
        <time>2011-05-31T14:43:14Z</time>
      </trkpt>
      <trkpt lat="41.3738958356" lon="2.18938815453">
        <ele>28.8</ele>
        <time>2011-05-31T14:43:21Z</time>
      </trkpt>
      <trkpt lat="41.3740467098" lon="2.18940206849">
        <ele>28.8</ele>
        <time>2011-05-31T14:43:26Z</time>
      </trkpt>
      <trkpt lat="41.3742245737" lon="2.18942277178">
        <ele>28.6</ele>
        <time>2011-05-31T14:43:32Z</time>
      </trkpt>
      <trkpt lat="41.3744091432" lon="2.18946803404">
        <ele>28.6</ele>
        <time>2011-05-31T14:43:38Z</time>
      </trkpt>
      <trkpt lat="41.3745869233" lon="2.18953567597">
        <ele>28.6</ele>
        <time>2011-05-31T14:43:43Z</time>
      </trkpt>
      <trkpt lat="41.3747320978" lon="2.18961019106">
        <ele>28.6</ele>
        <time>2011-05-31T14:43:49Z</time>
      </trkpt>
      <trkpt lat="41.374875093" lon="2.18968453852">
        <ele>28.6</ele>
        <time>2011-05-31T14:43:54Z</time>
      </trkpt>
      <trkpt lat="41.3750511967" lon="2.18979610161">
        <ele>28.6</ele>
        <time>2011-05-31T14:44:00Z</time>
      </trkpt>
      <trkpt lat="41.3752152305" lon="2.18990615595">
        <ele>28.2</ele>
        <time>2011-05-31T14:44:06Z</time>
      </trkpt>
      <trkpt lat="41.3753659371" lon="2.19000942096">
        <ele>27.4</ele>
        <time>2011-05-31T14:44:12Z</time>
      </trkpt>
      <trkpt lat="41.3755170627" lon="2.19008955192">
        <ele>27</ele>
        <time>2011-05-31T14:44:18Z</time>
      </trkpt>
      <trkpt lat="41.375641953" lon="2.1901587026">
        <ele>26.8</ele>
        <time>2011-05-31T14:44:23Z</time>
      </trkpt>
      <trkpt lat="41.3757787456" lon="2.19019440949">
        <ele>26.8</ele>
        <time>2011-05-31T14:44:28Z</time>
      </trkpt>
      <trkpt lat="41.3759457969" lon="2.1902509035">
        <ele>26.4</ele>
        <time>2011-05-31T14:44:33Z</time>
      </trkpt>
      <trkpt lat="41.3760814161" lon="2.19036364005">
        <ele>25.6</ele>
        <time>2011-05-31T14:44:37Z</time>
        <extensions><gpxtpx:TrackPointExtension><gpxtpx:hr>125</gpxtpx:hr></gpxtpx:TrackPointExtension></extensions>
      </trkpt>
      <trkpt lat="41.3761281032" lon="2.19039641328">
        <ele>25.6</ele>
        <time>2011-05-31T14:44:39Z</time>
        <extensions><gpxtpx:TrackPointExtension><gpxtpx:hr>124</gpxtpx:hr></gpxtpx:TrackPointExtension></extensions>
      </trkpt>
      <trkpt lat="41.3763008542" lon="2.1904653125">
        <ele>25</ele>
        <time>2011-05-31T14:44:45Z</time>
        <extensions><gpxtpx:TrackPointExtension><gpxtpx:hr>126</gpxtpx:hr></gpxtpx:TrackPointExtension></extensions>
      </trkpt>
      <trkpt lat="41.3764632116" lon="2.19048542906">
        <ele>24.8</ele>
        <time>2011-05-31T14:44:50Z</time>
        <extensions><gpxtpx:TrackPointExtension><gpxtpx:hr>127</gpxtpx:hr></gpxtpx:TrackPointExtension></extensions>
      </trkpt>
      <trkpt lat="41.3765813126" lon="2.19053287062">
        <ele>24.6</ele>
        <time>2011-05-31T14:44:54Z</time>
        <extensions><gpxtpx:TrackPointExtension><gpxtpx:hr>128</gpxtpx:hr></gpxtpx:TrackPointExtension></extensions>
      </trkpt>
      <trkpt lat="41.3767633674" lon="2.19058098272">
        <ele>24.6</ele>
        <time>2011-05-31T14:45:00Z</time>
        <extensions><gpxtpx:TrackPointExtension><gpxtpx:hr>129</gpxtpx:hr></gpxtpx:TrackPointExtension></extensions>
      </trkpt>
      <trkpt lat="41.3769021717" lon="2.19063521361">
        <ele>24.6</ele>
        <time>2011-05-31T14:45:05Z</time>
        <extensions><gpxtpx:TrackPointExtension><gpxtpx:hr>129</gpxtpx:hr></gpxtpx:TrackPointExtension></extensions>
      </trkpt>
      <trkpt lat="41.3770147406" lon="2.19070076007">
        <ele>24.6</ele>
        <time>2011-05-31T14:45:09Z</time>
        <extensions><gpxtpx:TrackPointExtension><gpxtpx:hr>129</gpxtpx:hr></gpxtpx:TrackPointExtension></extensions>
      </trkpt>
      <trkpt lat="41.3771236215" lon="2.1908173523">
        <ele>24.6</ele>
        <time>2011-05-31T14:45:13Z</time>
        <extensions><gpxtpx:TrackPointExtension><gpxtpx:hr>130</gpxtpx:hr></gpxtpx:TrackPointExtension></extensions>
      </trkpt>
      <trkpt lat="41.377239627" lon="2.19087719907">
        <ele>24.4</ele>
        <time>2011-05-31T14:45:17Z</time>
        <extensions><gpxtpx:TrackPointExtension><gpxtpx:hr>129</gpxtpx:hr></gpxtpx:TrackPointExtension></extensions>
      </trkpt>
      <trkpt lat="41.3773871484" lon="2.19097962589">
        <ele>24.4</ele>
        <time>2011-05-31T14:45:21Z</time>
        <extensions><gpxtpx:TrackPointExtension><gpxtpx:hr>130</gpxtpx:hr></gpxtpx:TrackPointExtension></extensions>
      </trkpt>
      <trkpt lat="41.3775474942" lon="2.19109512847">
        <ele>24.4</ele>
        <time>2011-05-31T14:45:27Z</time>
        <extensions><gpxtpx:TrackPointExtension><gpxtpx:hr>131</gpxtpx:hr></gpxtpx:TrackPointExtension></extensions>
      </trkpt>
      <trkpt lat="41.3777335724" lon="2.19120082423">
        <ele>24.4</ele>
        <time>2011-05-31T14:45:33Z</time>
        <extensions><gpxtpx:TrackPointExtension><gpxtpx:hr>131</gpxtpx:hr></gpxtpx:TrackPointExtension></extensions>
      </trkpt>
      <trkpt lat="41.3778855362" lon="2.1912787759">
        <ele>24.4</ele>
        <time>2011-05-31T14:45:39Z</time>
        <extensions><gpxtpx:TrackPointExtension><gpxtpx:hr>130</gpxtpx:hr></gpxtpx:TrackPointExtension></extensions>
      </trkpt>
      <trkpt lat="41.3780030504" lon="2.19139452994">
        <ele>24.4</ele>
        <time>2011-05-31T14:45:43Z</time>
        <extensions><gpxtpx:TrackPointExtension><gpxtpx:hr>132</gpxtpx:hr></gpxtpx:TrackPointExtension></extensions>
      </trkpt>
      <trkpt lat="41.3781779807" lon="2.19152218627">
        <ele>24.4</ele>
        <time>2011-05-31T14:45:50Z</time>
        <extensions><gpxtpx:TrackPointExtension><gpxtpx:hr>133</gpxtpx:hr></gpxtpx:TrackPointExtension></extensions>
      </trkpt>
      <trkpt lat="41.3783493067" lon="2.19160969331">
        <ele>24.4</ele>
        <time>2011-05-31T14:45:56Z</time>
        <extensions><gpxtpx:TrackPointExtension><gpxtpx:hr>133</gpxtpx:hr></gpxtpx:TrackPointExtension></extensions>
      </trkpt>
      <trkpt lat="41.3785225606" lon="2.19172930302">
        <ele>24.4</ele>
        <time>2011-05-31T14:46:02Z</time>
        <extensions><gpxtpx:TrackPointExtension><gpxtpx:hr>133</gpxtpx:hr></gpxtpx:TrackPointExtension></extensions>
      </trkpt>
      <trkpt lat="41.3785755342" lon="2.19176785976">
        <ele>24.4</ele>
        <time>2011-05-31T14:46:03Z</time>
        <extensions><gpxtpx:TrackPointExtension><gpxtpx:hr>133</gpxtpx:hr></gpxtpx:TrackPointExtension></extensions>
      </trkpt>
      <trkpt lat="41.3786362192" lon="2.19180650032">
        <ele>24.4</ele>
        <time>2011-05-31T14:46:06Z</time>
        <extensions><gpxtpx:TrackPointExtension><gpxtpx:hr>134</gpxtpx:hr></gpxtpx:TrackPointExtension></extensions>
      </trkpt>
      <trkpt lat="41.3787676474" lon="2.19190859186">
        <ele>24.4</ele>
        <time>2011-05-31T14:46:11Z</time>
        <extensions><gpxtpx:TrackPointExtension><gpxtpx:hr>135</gpxtpx:hr></gpxtpx:TrackPointExtension></extensions>
      </trkpt>
      <trkpt lat="41.3788906098" lon="2.1919996193">
        <ele>24.4</ele>
        <time>2011-05-31T14:46:15Z</time>
        <extensions><gpxtpx:TrackPointExtension><gpxtpx:hr>135</gpxtpx:hr></gpxtpx:TrackPointExtension></extensions>
      </trkpt>
      <trkpt lat="41.3790455074" lon="2.19210967364">
        <ele>24.4</ele>
        <time>2011-05-31T14:46:21Z</time>
        <extensions><gpxtpx:TrackPointExtension><gpxtpx:hr>137</gpxtpx:hr></gpxtpx:TrackPointExtension></extensions>
      </trkpt>
      <trkpt lat="41.379183222" lon="2.19219491757">
        <ele>24.4</ele>
        <time>2011-05-31T14:46:26Z</time>
        <extensions><gpxtpx:TrackPointExtension><gpxtpx:hr>138</gpxtpx:hr></gpxtpx:TrackPointExtension></extensions>
      </trkpt>
      <trkpt lat="41.3793263848" lon="2.19231452728">
        <ele>24.4</ele>
        <time>2011-05-31T14:46:32Z</time>
        <extensions><gpxtpx:TrackPointExtension><gpxtpx:hr>136</gpxtpx:hr></gpxtpx:TrackPointExtension></extensions>
      </trkpt>
      <trkpt lat="41.3797005528" lon="2.19255986549">
        <ele>25.8</ele>
        <time>2011-05-31T14:46:45Z</time>
        <extensions><gpxtpx:TrackPointExtension><gpxtpx:hr>136</gpxtpx:hr></gpxtpx:TrackPointExtension></extensions>
      </trkpt>
      <trkpt lat="41.3798612339" lon="2.19266170558">
        <ele>26.2</ele>
        <time>2011-05-31T14:46:52Z</time>
        <extensions><gpxtpx:TrackPointExtension><gpxtpx:hr>135</gpxtpx:hr></gpxtpx:TrackPointExtension></extensions>
      </trkpt>
      <trkpt lat="41.380040858" lon="2.19277628615">
        <ele>26.4</ele>
        <time>2011-05-31T14:46:59Z</time>
        <extensions><gpxtpx:TrackPointExtension><gpxtpx:hr>133</gpxtpx:hr></gpxtpx:TrackPointExtension></extensions>
      </trkpt>
      <trkpt lat="41.3801767286" lon="2.19286035661">
        <ele>26.4</ele>
        <time>2011-05-31T14:47:04Z</time>
        <extensions><gpxtpx:TrackPointExtension><gpxtpx:hr>134</gpxtpx:hr></gpxtpx:TrackPointExtension></extensions>
      </trkpt>
      <trkpt lat="41.3803503177" lon="2.19296965658">
        <ele>26.4</ele>
        <time>2011-05-31T14:47:10Z</time>
        <extensions><gpxtpx:TrackPointExtension><gpxtpx:hr>134</gpxtpx:hr></gpxtpx:TrackPointExtension></extensions>
      </trkpt>
      <trkpt lat="41.380521979" lon="2.19307392742">
        <ele>26.4</ele>
        <time>2011-05-31T14:47:15Z</time>
        <extensions><gpxtpx:TrackPointExtension><gpxtpx:hr>135</gpxtpx:hr></gpxtpx:TrackPointExtension></extensions>
      </trkpt>
      <trkpt lat="41.3807000106" lon="2.1931748455">
        <ele>26.4</ele>
        <time>2011-05-31T14:47:22Z</time>
        <extensions><gpxtpx:TrackPointExtension><gpxtpx:hr>134</gpxtpx:hr></gpxtpx:TrackPointExtension></extensions>
      </trkpt>
      <trkpt lat="41.3808355459" lon="2.19326545383">
        <ele>26.4</ele>
        <time>2011-05-31T14:47:27Z</time>
        <extensions><gpxtpx:TrackPointExtension><gpxtpx:hr>134</gpxtpx:hr></gpxtpx:TrackPointExtension></extensions>
      </trkpt>
      <trkpt lat="41.3809848276" lon="2.19335597835">
        <ele>26.4</ele>
        <time>2011-05-31T14:47:32Z</time>
        <extensions><gpxtpx:TrackPointExtension><gpxtpx:hr>132</gpxtpx:hr></gpxtpx:TrackPointExtension></extensions>
      </trkpt>
      <trkpt lat="41.3811214525" lon="2.19345932718">
        <ele>26.4</ele>
        <time>2011-05-31T14:47:37Z</time>
        <extensions><gpxtpx:TrackPointExtension><gpxtpx:hr>133</gpxtpx:hr></gpxtpx:TrackPointExtension></extensions>
      </trkpt>
      <trkpt lat="41.3812959637" lon="2.19356728605">
        <ele>26.4</ele>
        <time>2011-05-31T14:47:43Z</time>
        <extensions><gpxtpx:TrackPointExtension><gpxtpx:hr>134</gpxtpx:hr></gpxtpx:TrackPointExtension></extensions>
      </trkpt>
      <trkpt lat="41.3814780186" lon="2.19366669539">
        <ele>26.4</ele>
        <time>2011-05-31T14:47:49Z</time>
        <extensions><gpxtpx:TrackPointExtension><gpxtpx:hr>133</gpxtpx:hr></gpxtpx:TrackPointExtension></extensions>
      </trkpt>
      <trkpt lat="41.3816096982" lon="2.19373592988">
        <ele>26.4</ele>
        <time>2011-05-31T14:47:53Z</time>
        <extensions><gpxtpx:TrackPointExtension><gpxtpx:hr>132</gpxtpx:hr></gpxtpx:TrackPointExtension></extensions>
      </trkpt>
      <trkpt lat="41.3817754922" lon="2.19384665478">
        <ele>26.4</ele>
        <time>2011-05-31T14:47:59Z</time>
        <extensions><gpxtpx:TrackPointExtension><gpxtpx:hr>133</gpxtpx:hr></gpxtpx:TrackPointExtension></extensions>
      </trkpt>
      <trkpt lat="41.3819426273" lon="2.19396467193">
        <ele>26.4</ele>
        <time>2011-05-31T14:48:05Z</time>
        <extensions><gpxtpx:TrackPointExtension><gpxtpx:hr>134</gpxtpx:hr></gpxtpx:TrackPointExtension></extensions>
      </trkpt>
      <trkpt lat="41.3821091756" lon="2.19406718257">
        <ele>26.4</ele>
        <time>2011-05-31T14:48:11Z</time>
        <extensions><gpxtpx:TrackPointExtension><gpxtpx:hr>134</gpxtpx:hr></gpxtpx:TrackPointExtension></extensions>
      </trkpt>
      <trkpt lat="41.3822483152" lon="2.19415167212">
        <ele>26.4</ele>
        <time>2011-05-31T14:48:15Z</time>
        <extensions><gpxtpx:TrackPointExtension><gpxtpx:hr>133</gpxtpx:hr></gpxtpx:TrackPointExtension></extensions>
      </trkpt>
      <trkpt lat="41.3824199765" lon="2.19427530515">
        <ele>26.4</ele>
        <time>2011-05-31T14:48:22Z</time>
        <extensions><gpxtpx:TrackPointExtension><gpxtpx:hr>128</gpxtpx:hr></gpxtpx:TrackPointExtension></extensions>
      </trkpt>
      <trkpt lat="41.3825925598" lon="2.1943778996">
        <ele>26.4</ele>
        <time>2011-05-31T14:48:27Z</time>
        <extensions><gpxtpx:TrackPointExtension><gpxtpx:hr>126</gpxtpx:hr></gpxtpx:TrackPointExtension></extensions>
      </trkpt>
      <trkpt lat="41.3827650593" lon="2.19448460119">
        <ele>27.4</ele>
        <time>2011-05-31T14:48:33Z</time>
        <extensions><gpxtpx:TrackPointExtension><gpxtpx:hr>130</gpxtpx:hr></gpxtpx:TrackPointExtension></extensions>
      </trkpt>
      <trkpt lat="41.3832141615" lon="2.19475164852">
        <ele>28.4</ele>
        <time>2011-05-31T14:48:50Z</time>
        <extensions><gpxtpx:TrackPointExtension><gpxtpx:hr>135</gpxtpx:hr></gpxtpx:TrackPointExtension></extensions>
      </trkpt>
      <trkpt lat="41.3833784467" lon="2.19486203815">
        <ele>28.4</ele>
        <time>2011-05-31T14:48:56Z</time>
        <extensions><gpxtpx:TrackPointExtension><gpxtpx:hr>135</gpxtpx:hr></gpxtpx:TrackPointExtension></extensions>
      </trkpt>
      <trkpt lat="41.3835211905" lon="2.1949465277">
        <ele>28.4</ele>
        <time>2011-05-31T14:49:01Z</time>
        <extensions><gpxtpx:TrackPointExtension><gpxtpx:hr>135</gpxtpx:hr></gpxtpx:TrackPointExtension></extensions>
      </trkpt>
      <trkpt lat="41.3836976295" lon="2.19505172054">
        <ele>28.6</ele>
        <time>2011-05-31T14:49:07Z</time>
        <extensions><gpxtpx:TrackPointExtension><gpxtpx:hr>134</gpxtpx:hr></gpxtpx:TrackPointExtension></extensions>
      </trkpt>
      <trkpt lat="41.3838557959" lon="2.19515708103">
        <ele>28.6</ele>
        <time>2011-05-31T14:49:13Z</time>
        <extensions><gpxtpx:TrackPointExtension><gpxtpx:hr>134</gpxtpx:hr></gpxtpx:TrackPointExtension></extensions>
      </trkpt>
      <trkpt lat="41.3840148006" lon="2.19527451145">
        <ele>28.6</ele>
        <time>2011-05-31T14:49:19Z</time>
        <extensions><gpxtpx:TrackPointExtension><gpxtpx:hr>134</gpxtpx:hr></gpxtpx:TrackPointExtension></extensions>
      </trkpt>
      <trkpt lat="41.3841585502" lon="2.19536394632">
        <ele>28.6</ele>
        <time>2011-05-31T14:49:24Z</time>
        <extensions><gpxtpx:TrackPointExtension><gpxtpx:hr>135</gpxtpx:hr></gpxtpx:TrackPointExtension></extensions>
      </trkpt>
      <trkpt lat="41.3843348215" lon="2.19547433594">
        <ele>28.6</ele>
        <time>2011-05-31T14:49:30Z</time>
        <extensions><gpxtpx:TrackPointExtension><gpxtpx:hr>137</gpxtpx:hr></gpxtpx:TrackPointExtension></extensions>
      </trkpt>
      <trkpt lat="41.3845070696" lon="2.19557173362">
        <ele>28.6</ele>
        <time>2011-05-31T14:49:36Z</time>
        <extensions><gpxtpx:TrackPointExtension><gpxtpx:hr>136</gpxtpx:hr></gpxtpx:TrackPointExtension></extensions>
      </trkpt>
      <trkpt lat="41.3846738694" lon="2.19570115016">
        <ele>28.6</ele>
        <time>2011-05-31T14:49:42Z</time>
        <extensions><gpxtpx:TrackPointExtension><gpxtpx:hr>134</gpxtpx:hr></gpxtpx:TrackPointExtension></extensions>
      </trkpt>
      <trkpt lat="41.3848315329" lon="2.19585085089">
        <ele>28.6</ele>
        <time>2011-05-31T14:49:48Z</time>
        <extensions><gpxtpx:TrackPointExtension><gpxtpx:hr>134</gpxtpx:hr></gpxtpx:TrackPointExtension></extensions>
      </trkpt>
      <trkpt lat="41.384964889" lon="2.19602150637">
        <ele>28.6</ele>
        <time>2011-05-31T14:49:54Z</time>
        <extensions><gpxtpx:TrackPointExtension><gpxtpx:hr>134</gpxtpx:hr></gpxtpx:TrackPointExtension></extensions>
      </trkpt>
      <trkpt lat="41.3850693274" lon="2.19615586823">
        <ele>28.6</ele>
        <time>2011-05-31T14:49:57Z</time>
        <extensions><gpxtpx:TrackPointExtension><gpxtpx:hr>134</gpxtpx:hr></gpxtpx:TrackPointExtension></extensions>
      </trkpt>
      <trkpt lat="41.3852051142" lon="2.19633800692">
        <ele>28.6</ele>
        <time>2011-05-31T14:50:03Z</time>
        <extensions><gpxtpx:TrackPointExtension><gpxtpx:hr>133</gpxtpx:hr></gpxtpx:TrackPointExtension></extensions>
      </trkpt>
      <trkpt lat="41.3853627777" lon="2.19654906316">
        <ele>28.6</ele>
        <time>2011-05-31T14:50:10Z</time>
        <extensions><gpxtpx:TrackPointExtension><gpxtpx:hr>135</gpxtpx:hr></gpxtpx:TrackPointExtension></extensions>
      </trkpt>
      <trkpt lat="41.3854920266" lon="2.1967217303">
        <ele>28.6</ele>
        <time>2011-05-31T14:50:16Z</time>
        <extensions><gpxtpx:TrackPointExtension><gpxtpx:hr>137</gpxtpx:hr></gpxtpx:TrackPointExtension></extensions>
      </trkpt>
      <trkpt lat="41.38560996" lon="2.19687528671">
        <ele>28.6</ele>
        <time>2011-05-31T14:50:21Z</time>
        <extensions><gpxtpx:TrackPointExtension><gpxtpx:hr>137</gpxtpx:hr></gpxtpx:TrackPointExtension></extensions>
      </trkpt>
      <trkpt lat="41.3857434836" lon="2.19705801213">
        <ele>28.6</ele>
        <time>2011-05-31T14:50:27Z</time>
        <extensions><gpxtpx:TrackPointExtension><gpxtpx:hr>138</gpxtpx:hr></gpxtpx:TrackPointExtension></extensions>
      </trkpt>
      <trkpt lat="41.3858765044" lon="2.19721190381">
        <ele>29.2</ele>
        <time>2011-05-31T14:50:32Z</time>
        <extensions><gpxtpx:TrackPointExtension><gpxtpx:hr>137</gpxtpx:hr></gpxtpx:TrackPointExtension></extensions>
      </trkpt>
      <trkpt lat="41.3860076811" lon="2.19736445439">
        <ele>29.8</ele>
        <time>2011-05-31T14:50:37Z</time>
        <extensions><gpxtpx:TrackPointExtension><gpxtpx:hr>137</gpxtpx:hr></gpxtpx:TrackPointExtension></extensions>
      </trkpt>
      <trkpt lat="41.3860371854" lon="2.19743477853">
        <ele>30</ele>
        <time>2011-05-31T14:50:40Z</time>
        <extensions><gpxtpx:TrackPointExtension><gpxtpx:hr>138</gpxtpx:hr></gpxtpx:TrackPointExtension></extensions>
      </trkpt>
      <trkpt lat="41.386152688" lon="2.19757634882">
        <ele>30.2</ele>
        <time>2011-05-31T14:50:45Z</time>
        <extensions><gpxtpx:TrackPointExtension><gpxtpx:hr>140</gpxtpx:hr></gpxtpx:TrackPointExtension></extensions>
      </trkpt>
      <trkpt lat="41.3861816894" lon="2.19760174598">
        <ele>30.2</ele>
        <time>2011-05-31T14:50:46Z</time>
        <extensions><gpxtpx:TrackPointExtension><gpxtpx:hr>140</gpxtpx:hr></gpxtpx:TrackPointExtension></extensions>
      </trkpt>
      <trkpt lat="41.3862633291" lon="2.1977072741">
        <ele>30.4</ele>
        <time>2011-05-31T14:50:49Z</time>
        <extensions><gpxtpx:TrackPointExtension><gpxtpx:hr>140</gpxtpx:hr></gpxtpx:TrackPointExtension></extensions>
      </trkpt>
      <trkpt lat="41.3862983654" lon="2.19776116972">
        <ele>30.4</ele>
        <time>2011-05-31T14:50:50Z</time>
        <extensions><gpxtpx:TrackPointExtension><gpxtpx:hr>139</gpxtpx:hr></gpxtpx:TrackPointExtension></extensions>
      </trkpt>
      <trkpt lat="41.3864153767" lon="2.19795780909">
        <ele>30.4</ele>
        <time>2011-05-31T14:50:56Z</time>
        <extensions><gpxtpx:TrackPointExtension><gpxtpx:hr>138</gpxtpx:hr></gpxtpx:TrackPointExtension></extensions>
      </trkpt>
      <trkpt lat="41.3865188094" lon="2.19812628528">
        <ele>30.6</ele>
        <time>2011-05-31T14:51:01Z</time>
        <extensions><gpxtpx:TrackPointExtension><gpxtpx:hr>138</gpxtpx:hr></gpxtpx:TrackPointExtension></extensions>
      </trkpt>
      <trkpt lat="41.3866561049" lon="2.19821303795">
        <ele>30.6</ele>
        <time>2011-05-31T14:51:06Z</time>
        <extensions><gpxtpx:TrackPointExtension><gpxtpx:hr>139</gpxtpx:hr></gpxtpx:TrackPointExtension></extensions>
      </trkpt>
      <trkpt lat="41.3868122597" lon="2.19815050897">
        <ele>30.6</ele>
        <time>2011-05-31T14:51:11Z</time>
        <extensions><gpxtpx:TrackPointExtension><gpxtpx:hr>139</gpxtpx:hr></gpxtpx:TrackPointExtension></extensions>
      </trkpt>
      <trkpt lat="41.3868234915" lon="2.19812745875">
        <ele>30.6</ele>
        <time>2011-05-31T14:51:12Z</time>
        <extensions><gpxtpx:TrackPointExtension><gpxtpx:hr>139</gpxtpx:hr></gpxtpx:TrackPointExtension></extensions>
      </trkpt>
      <trkpt lat="41.3868951567" lon="2.19805948154">
        <ele>30.6</ele>
        <time>2011-05-31T14:51:15Z</time>
        <extensions><gpxtpx:TrackPointExtension><gpxtpx:hr>139</gpxtpx:hr></gpxtpx:TrackPointExtension></extensions>
      </trkpt>
      <trkpt lat="41.3870245732" lon="2.19788823932">
        <ele>30.6</ele>
        <time>2011-05-31T14:51:21Z</time>
        <extensions><gpxtpx:TrackPointExtension><gpxtpx:hr>139</gpxtpx:hr></gpxtpx:TrackPointExtension></extensions>
      </trkpt>
      <trkpt lat="41.387034883" lon="2.19786099815">
        <ele>30.6</ele>
        <time>2011-05-31T14:51:22Z</time>
        <extensions><gpxtpx:TrackPointExtension><gpxtpx:hr>139</gpxtpx:hr></gpxtpx:TrackPointExtension></extensions>
      </trkpt>
      <trkpt lat="41.3871527325" lon="2.19775882279">
        <ele>30.6</ele>
        <time>2011-05-31T14:51:27Z</time>
        <extensions><gpxtpx:TrackPointExtension><gpxtpx:hr>138</gpxtpx:hr></gpxtpx:TrackPointExtension></extensions>
      </trkpt>
      <trkpt lat="41.3872036944" lon="2.19770224496">
        <ele>30.6</ele>
        <time>2011-05-31T14:51:29Z</time>
        <extensions><gpxtpx:TrackPointExtension><gpxtpx:hr>138</gpxtpx:hr></gpxtpx:TrackPointExtension></extensions>
      </trkpt>
      <trkpt lat="41.3873178559" lon="2.19762085671">
        <ele>31.2</ele>
        <time>2011-05-31T14:51:33Z</time>
        <extensions><gpxtpx:TrackPointExtension><gpxtpx:hr>137</gpxtpx:hr></gpxtpx:TrackPointExtension></extensions>
      </trkpt>
      <trkpt lat="41.3874652935" lon="2.19772361881">
        <ele>31.8</ele>
        <time>2011-05-31T14:51:38Z</time>
        <extensions><gpxtpx:TrackPointExtension><gpxtpx:hr>138</gpxtpx:hr></gpxtpx:TrackPointExtension></extensions>
      </trkpt>
      <trkpt lat="41.387567888" lon="2.1978396243">
        <ele>32.2</ele>
        <time>2011-05-31T14:51:42Z</time>
        <extensions><gpxtpx:TrackPointExtension><gpxtpx:hr>139</gpxtpx:hr></gpxtpx:TrackPointExtension></extensions>
      </trkpt>
      <trkpt lat="41.3876885035" lon="2.19796661009">
        <ele>32.4</ele>
        <time>2011-05-31T14:51:46Z</time>
        <extensions><gpxtpx:TrackPointExtension><gpxtpx:hr>138</gpxtpx:hr></gpxtpx:TrackPointExtension></extensions>
      </trkpt>
      <trkpt lat="41.3878076103" lon="2.19809694863">
        <ele>32.4</ele>
        <time>2011-05-31T14:51:51Z</time>
        <extensions><gpxtpx:TrackPointExtension><gpxtpx:hr>136</gpxtpx:hr></gpxtpx:TrackPointExtension></extensions>
      </trkpt>
      <trkpt lat="41.3879328359" lon="2.19826584392">
        <ele>32.6</ele>
        <time>2011-05-31T14:51:56Z</time>
        <extensions><gpxtpx:TrackPointExtension><gpxtpx:hr>136</gpxtpx:hr></gpxtpx:TrackPointExtension></extensions>
      </trkpt>
      <trkpt lat="41.3880483385" lon="2.19842593821">
        <ele>32.6</ele>
        <time>2011-05-31T14:52:01Z</time>
        <extensions><gpxtpx:TrackPointExtension><gpxtpx:hr>138</gpxtpx:hr></gpxtpx:TrackPointExtension></extensions>
      </trkpt>
      <trkpt lat="41.3881822813" lon="2.19859718042">
        <ele>32.6</ele>
        <time>2011-05-31T14:52:06Z</time>
        <extensions><gpxtpx:TrackPointExtension><gpxtpx:hr>140</gpxtpx:hr></gpxtpx:TrackPointExtension></extensions>
      </trkpt>
      <trkpt lat="41.3883190739" lon="2.19875316758">
        <ele>32.6</ele>
        <time>2011-05-31T14:52:11Z</time>
        <extensions><gpxtpx:TrackPointExtension><gpxtpx:hr>141</gpxtpx:hr></gpxtpx:TrackPointExtension></extensions>
      </trkpt>
      <trkpt lat="41.3884578781" lon="2.1989195483">
        <ele>32.6</ele>
        <time>2011-05-31T14:52:17Z</time>
        <extensions><gpxtpx:TrackPointExtension><gpxtpx:hr>140</gpxtpx:hr></gpxtpx:TrackPointExtension></extensions>
      </trkpt>
      <trkpt lat="41.3885559464" lon="2.19903840364">
        <ele>32.6</ele>
        <time>2011-05-31T14:52:21Z</time>
        <extensions><gpxtpx:TrackPointExtension><gpxtpx:hr>140</gpxtpx:hr></gpxtpx:TrackPointExtension></extensions>
      </trkpt>
      <trkpt lat="41.3886439563" lon="2.19914770362">
        <ele>32.6</ele>
        <time>2011-05-31T14:52:25Z</time>
        <extensions><gpxtpx:TrackPointExtension><gpxtpx:hr>139</gpxtpx:hr></gpxtpx:TrackPointExtension></extensions>
      </trkpt>
      <trkpt lat="41.3887687628" lon="2.19932657336">
        <ele>32.6</ele>
        <time>2011-05-31T14:52:30Z</time>
        <extensions><gpxtpx:TrackPointExtension><gpxtpx:hr>137</gpxtpx:hr></gpxtpx:TrackPointExtension></extensions>
      </trkpt>
      <trkpt lat="41.3888091636" lon="2.19940729106">
        <ele>32.6</ele>
        <time>2011-05-31T14:52:33Z</time>
        <extensions><gpxtpx:TrackPointExtension><gpxtpx:hr>136</gpxtpx:hr></gpxtpx:TrackPointExtension></extensions>
      </trkpt>
      <trkpt lat="41.388971521" lon="2.19959864984">
        <ele>32.6</ele>
        <time>2011-05-31T14:52:40Z</time>
        <extensions><gpxtpx:TrackPointExtension><gpxtpx:hr>137</gpxtpx:hr></gpxtpx:TrackPointExtension></extensions>
      </trkpt>
      <trkpt lat="41.3890940643" lon="2.19975036223">
        <ele>32.6</ele>
        <time>2011-05-31T14:52:45Z</time>
        <extensions><gpxtpx:TrackPointExtension><gpxtpx:hr>138</gpxtpx:hr></gpxtpx:TrackPointExtension></extensions>
      </trkpt>
      <trkpt lat="41.3892524823" lon="2.1999236161">
        <ele>32</ele>
        <time>2011-05-31T14:52:52Z</time>
        <extensions><gpxtpx:TrackPointExtension><gpxtpx:hr>139</gpxtpx:hr></gpxtpx:TrackPointExtension></extensions>
      </trkpt>
      <trkpt lat="41.3893733493" lon="2.20004515365">
        <ele>31.4</ele>
        <time>2011-05-31T14:52:57Z</time>
        <extensions><gpxtpx:TrackPointExtension><gpxtpx:hr>139</gpxtpx:hr></gpxtpx:TrackPointExtension></extensions>
      </trkpt>
      <trkpt lat="41.3895070406" lon="2.20015026268">
        <ele>31.2</ele>
        <time>2011-05-31T14:53:02Z</time>
        <extensions><gpxtpx:TrackPointExtension><gpxtpx:hr>138</gpxtpx:hr></gpxtpx:TrackPointExtension></extensions>
      </trkpt>
      <trkpt lat="41.3896425759" lon="2.20025604225">
        <ele>31</ele>
        <time>2011-05-31T14:53:07Z</time>
        <extensions><gpxtpx:TrackPointExtension><gpxtpx:hr>139</gpxtpx:hr></gpxtpx:TrackPointExtension></extensions>
      </trkpt>
      <trkpt lat="41.3897947074" lon="2.2003859617">
        <ele>30.8</ele>
        <time>2011-05-31T14:53:13Z</time>
        <extensions><gpxtpx:TrackPointExtension><gpxtpx:hr>139</gpxtpx:hr></gpxtpx:TrackPointExtension></extensions>
      </trkpt>
      <trkpt lat="41.3899705596" lon="2.20051965301">
        <ele>30.8</ele>
        <time>2011-05-31T14:53:19Z</time>
        <extensions><gpxtpx:TrackPointExtension><gpxtpx:hr>140</gpxtpx:hr></gpxtpx:TrackPointExtension></extensions>
      </trkpt>
      <trkpt lat="41.3901608288" lon="2.20059173735">
        <ele>30.6</ele>
        <time>2011-05-31T14:53:25Z</time>
        <extensions><gpxtpx:TrackPointExtension><gpxtpx:hr>140</gpxtpx:hr></gpxtpx:TrackPointExtension></extensions>
      </trkpt>
      <trkpt lat="41.3903189952" lon="2.20066139094">
        <ele>30.6</ele>
        <time>2011-05-31T14:53:30Z</time>
        <extensions><gpxtpx:TrackPointExtension><gpxtpx:hr>140</gpxtpx:hr></gpxtpx:TrackPointExtension></extensions>
      </trkpt>
      <trkpt lat="41.3906082546" lon="2.20090765116">
        <ele>30.6</ele>
        <time>2011-05-31T14:53:41Z</time>
        <extensions><gpxtpx:TrackPointExtension><gpxtpx:hr>139</gpxtpx:hr></gpxtpx:TrackPointExtension></extensions>
      </trkpt>
      <trkpt lat="41.3907219131" lon="2.20106497942">
        <ele>30.6</ele>
        <time>2011-05-31T14:53:46Z</time>
        <extensions><gpxtpx:TrackPointExtension><gpxtpx:hr>140</gpxtpx:hr></gpxtpx:TrackPointExtension></extensions>
      </trkpt>
      <trkpt lat="41.3908543472" lon="2.20123244978">
        <ele>30.6</ele>
        <time>2011-05-31T14:53:51Z</time>
        <extensions><gpxtpx:TrackPointExtension><gpxtpx:hr>140</gpxtpx:hr></gpxtpx:TrackPointExtension></extensions>
      </trkpt>
      <trkpt lat="41.3909716099" lon="2.20140880496">
        <ele>30.6</ele>
        <time>2011-05-31T14:53:56Z</time>
        <extensions><gpxtpx:TrackPointExtension><gpxtpx:hr>140</gpxtpx:hr></gpxtpx:TrackPointExtension></extensions>
      </trkpt>
      <trkpt lat="41.3910841789" lon="2.20162849456">
        <ele>30.6</ele>
        <time>2011-05-31T14:54:02Z</time>
        <extensions><gpxtpx:TrackPointExtension><gpxtpx:hr>142</gpxtpx:hr></gpxtpx:TrackPointExtension></extensions>
      </trkpt>
      <trkpt lat="41.3911787267" lon="2.20181147144">
        <ele>30.6</ele>
        <time>2011-05-31T14:54:07Z</time>
        <extensions><gpxtpx:TrackPointExtension><gpxtpx:hr>141</gpxtpx:hr></gpxtpx:TrackPointExtension></extensions>
      </trkpt>
      <trkpt lat="41.3912859312" lon="2.20203334033">
        <ele>29.6</ele>
        <time>2011-05-31T14:54:13Z</time>
        <extensions><gpxtpx:TrackPointExtension><gpxtpx:hr>140</gpxtpx:hr></gpxtpx:TrackPointExtension></extensions>
      </trkpt>
      <trkpt lat="41.3913579317" lon="2.20218840548">
        <ele>29.2</ele>
        <time>2011-05-31T14:54:17Z</time>
        <extensions><gpxtpx:TrackPointExtension><gpxtpx:hr>140</gpxtpx:hr></gpxtpx:TrackPointExtension></extensions>
      </trkpt>
      <trkpt lat="41.3914468637" lon="2.2024293851">
        <ele>29</ele>
        <time>2011-05-31T14:54:23Z</time>
        <extensions><gpxtpx:TrackPointExtension><gpxtpx:hr>140</gpxtpx:hr></gpxtpx:TrackPointExtension></extensions>
      </trkpt>
      <trkpt lat="41.3915118234" lon="2.20261764258">
        <ele>28.8</ele>
        <time>2011-05-31T14:54:27Z</time>
        <extensions><gpxtpx:TrackPointExtension><gpxtpx:hr>140</gpxtpx:hr></gpxtpx:TrackPointExtension></extensions>
      </trkpt>
      <trkpt lat="41.3915965644" lon="2.20285987949">
        <ele>28.2</ele>
        <time>2011-05-31T14:54:34Z</time>
        <extensions><gpxtpx:TrackPointExtension><gpxtpx:hr>141</gpxtpx:hr></gpxtpx:TrackPointExtension></extensions>
      </trkpt>
      <trkpt lat="41.3916877595" lon="2.20309918273">
        <ele>27.4</ele>
        <time>2011-05-31T14:54:40Z</time>
        <extensions><gpxtpx:TrackPointExtension><gpxtpx:hr>140</gpxtpx:hr></gpxtpx:TrackPointExtension></extensions>
      </trkpt>
      <trkpt lat="41.3917466004" lon="2.20325408025">
        <ele>27</ele>
        <time>2011-05-31T14:54:44Z</time>
        <extensions><gpxtpx:TrackPointExtension><gpxtpx:hr>141</gpxtpx:hr></gpxtpx:TrackPointExtension></extensions>
      </trkpt>
      <trkpt lat="41.3918075368" lon="2.20340813957">
        <ele>26.8</ele>
        <time>2011-05-31T14:54:48Z</time>
        <extensions><gpxtpx:TrackPointExtension><gpxtpx:hr>140</gpxtpx:hr></gpxtpx:TrackPointExtension></extensions>
      </trkpt>
      <trkpt lat="41.3919165015" lon="2.20361953109">
        <ele>26.6</ele>
        <time>2011-05-31T14:54:54Z</time>
        <extensions><gpxtpx:TrackPointExtension><gpxtpx:hr>141</gpxtpx:hr></gpxtpx:TrackPointExtension></extensions>
      </trkpt>
      <trkpt lat="41.3919750072" lon="2.20375573696">
        <ele>26.6</ele>
        <time>2011-05-31T14:54:57Z</time>
        <extensions><gpxtpx:TrackPointExtension><gpxtpx:hr>142</gpxtpx:hr></gpxtpx:TrackPointExtension></extensions>
      </trkpt>
      <trkpt lat="41.392089504" lon="2.20392077657">
        <ele>26.6</ele>
        <time>2011-05-31T14:55:03Z</time>
        <extensions><gpxtpx:TrackPointExtension><gpxtpx:hr>141</gpxtpx:hr></gpxtpx:TrackPointExtension></extensions>
      </trkpt>
      <trkpt lat="41.3922227762" lon="2.2041110457">
        <ele>26.6</ele>
        <time>2011-05-31T14:55:09Z</time>
        <extensions><gpxtpx:TrackPointExtension><gpxtpx:hr>140</gpxtpx:hr></gpxtpx:TrackPointExtension></extensions>
      </trkpt>
      <trkpt lat="41.3923593173" lon="2.20429268147">
        <ele>26.6</ele>
        <time>2011-05-31T14:55:15Z</time>
        <extensions><gpxtpx:TrackPointExtension><gpxtpx:hr>137</gpxtpx:hr></gpxtpx:TrackPointExtension></extensions>
      </trkpt>
      <trkpt lat="41.392453027" lon="2.20440776496">
        <ele>26.6</ele>
        <time>2011-05-31T14:55:19Z</time>
        <extensions><gpxtpx:TrackPointExtension><gpxtpx:hr>138</gpxtpx:hr></gpxtpx:TrackPointExtension></extensions>
      </trkpt>
      <trkpt lat="41.3925847066" lon="2.20453793587">
        <ele>26.4</ele>
        <time>2011-05-31T14:55:24Z</time>
        <extensions><gpxtpx:TrackPointExtension><gpxtpx:hr>139</gpxtpx:hr></gpxtpx:TrackPointExtension></extensions>
      </trkpt>
      <trkpt lat="41.3926154682" lon="2.20456174046">
        <ele>26.4</ele>
        <time>2011-05-31T14:55:25Z</time>
        <extensions><gpxtpx:TrackPointExtension><gpxtpx:hr>140</gpxtpx:hr></gpxtpx:TrackPointExtension></extensions>
      </trkpt>
      <trkpt lat="41.3927271151" lon="2.2046695317">
        <ele>26.4</ele>
        <time>2011-05-31T14:55:29Z</time>
        <extensions><gpxtpx:TrackPointExtension><gpxtpx:hr>141</gpxtpx:hr></gpxtpx:TrackPointExtension></extensions>
      </trkpt>
      <trkpt lat="41.392937417" lon="2.20483239202">
        <ele>26.4</ele>
        <time>2011-05-31T14:55:36Z</time>
        <extensions><gpxtpx:TrackPointExtension><gpxtpx:hr>140</gpxtpx:hr></gpxtpx:TrackPointExtension></extensions>
      </trkpt>
      <trkpt lat="41.3930595412" lon="2.20495376193">
        <ele>26.4</ele>
        <time>2011-05-31T14:55:41Z</time>
        <extensions><gpxtpx:TrackPointExtension><gpxtpx:hr>141</gpxtpx:hr></gpxtpx:TrackPointExtension></extensions>
      </trkpt>
      <trkpt lat="41.3932233236" lon="2.20508451957">
        <ele>26.4</ele>
        <time>2011-05-31T14:55:47Z</time>
        <extensions><gpxtpx:TrackPointExtension><gpxtpx:hr>141</gpxtpx:hr></gpxtpx:TrackPointExtension></extensions>
      </trkpt>
      <trkpt lat="41.3933969965" lon="2.20518904186">
        <ele>27</ele>
        <time>2011-05-31T14:55:53Z</time>
        <extensions><gpxtpx:TrackPointExtension><gpxtpx:hr>141</gpxtpx:hr></gpxtpx:TrackPointExtension></extensions>
      </trkpt>
      <trkpt lat="41.3935216354" lon="2.20525794108">
        <ele>27.6</ele>
        <time>2011-05-31T14:55:57Z</time>
        <extensions><gpxtpx:TrackPointExtension><gpxtpx:hr>142</gpxtpx:hr></gpxtpx:TrackPointExtension></extensions>
      </trkpt>
      <trkpt lat="41.393663541" lon="2.20534871706">
        <ele>28</ele>
        <time>2011-05-31T14:56:02Z</time>
        <extensions><gpxtpx:TrackPointExtension><gpxtpx:hr>143</gpxtpx:hr></gpxtpx:TrackPointExtension></extensions>
      </trkpt>
      <trkpt lat="41.3938310951" lon="2.20545575392">
        <ele>28.2</ele>
        <time>2011-05-31T14:56:08Z</time>
        <extensions><gpxtpx:TrackPointExtension><gpxtpx:hr>143</gpxtpx:hr></gpxtpx:TrackPointExtension></extensions>
      </trkpt>
      <trkpt lat="41.394005271" lon="2.20556337751">
        <ele>28.4</ele>
        <time>2011-05-31T14:56:14Z</time>
        <extensions><gpxtpx:TrackPointExtension><gpxtpx:hr>143</gpxtpx:hr></gpxtpx:TrackPointExtension></extensions>
      </trkpt>
      <trkpt lat="41.3941499426" lon="2.20566362504">
        <ele>28.4</ele>
        <time>2011-05-31T14:56:19Z</time>
        <extensions><gpxtpx:TrackPointExtension><gpxtpx:hr>144</gpxtpx:hr></gpxtpx:TrackPointExtension></extensions>
      </trkpt>
      <trkpt lat="41.3943234479" lon="2.20580100438">
        <ele>28.4</ele>
        <time>2011-05-31T14:56:25Z</time>
        <extensions><gpxtpx:TrackPointExtension><gpxtpx:hr>146</gpxtpx:hr></gpxtpx:TrackPointExtension></extensions>
      </trkpt>
      <trkpt lat="41.3944748251" lon="2.20592539178">
        <ele>28.6</ele>
        <time>2011-05-31T14:56:30Z</time>
        <extensions><gpxtpx:TrackPointExtension><gpxtpx:hr>146</gpxtpx:hr></gpxtpx:TrackPointExtension></extensions>
      </trkpt>
      <trkpt lat="41.3946278785" lon="2.20606981191">
        <ele>28.8</ele>
        <time>2011-05-31T14:56:36Z</time>
        <extensions><gpxtpx:TrackPointExtension><gpxtpx:hr>145</gpxtpx:hr></gpxtpx:TrackPointExtension></extensions>
      </trkpt>
      <trkpt lat="41.3947558702" lon="2.20620501196">
        <ele>29.6</ele>
        <time>2011-05-31T14:56:41Z</time>
        <extensions><gpxtpx:TrackPointExtension><gpxtpx:hr>145</gpxtpx:hr></gpxtpx:TrackPointExtension></extensions>
      </trkpt>
      <trkpt lat="41.3949021343" lon="2.20638723447">
        <ele>30</ele>
        <time>2011-05-31T14:56:47Z</time>
        <extensions><gpxtpx:TrackPointExtension><gpxtpx:hr>145</gpxtpx:hr></gpxtpx:TrackPointExtension></extensions>
      </trkpt>
      <trkpt lat="41.3950447943" lon="2.20656836732">
        <ele>30.4</ele>
        <time>2011-05-31T14:56:53Z</time>
        <extensions><gpxtpx:TrackPointExtension><gpxtpx:hr>145</gpxtpx:hr></gpxtpx:TrackPointExtension></extensions>
      </trkpt>
      <trkpt lat="41.3951921481" lon="2.2067535235">
        <ele>30.4</ele>
        <time>2011-05-31T14:56:59Z</time>
        <extensions><gpxtpx:TrackPointExtension><gpxtpx:hr>145</gpxtpx:hr></gpxtpx:TrackPointExtension></extensions>
      </trkpt>
      <trkpt lat="41.3953495601" lon="2.20693432108">
        <ele>30.6</ele>
        <time>2011-05-31T14:57:05Z</time>
        <extensions><gpxtpx:TrackPointExtension><gpxtpx:hr>146</gpxtpx:hr></gpxtpx:TrackPointExtension></extensions>
      </trkpt>
      <trkpt lat="41.3954545853" lon="2.20705963048">
        <ele>30.6</ele>
        <time>2011-05-31T14:57:09Z</time>
        <extensions><gpxtpx:TrackPointExtension><gpxtpx:hr>147</gpxtpx:hr></gpxtpx:TrackPointExtension></extensions>
      </trkpt>
      <trkpt lat="41.395572854" lon="2.20723330345">
        <ele>30.6</ele>
        <time>2011-05-31T14:57:14Z</time>
        <extensions><gpxtpx:TrackPointExtension><gpxtpx:hr>147</gpxtpx:hr></gpxtpx:TrackPointExtension></extensions>
      </trkpt>
      <trkpt lat="41.3956894462" lon="2.20739683432">
        <ele>30.6</ele>
        <time>2011-05-31T14:57:19Z</time>
        <extensions><gpxtpx:TrackPointExtension><gpxtpx:hr>147</gpxtpx:hr></gpxtpx:TrackPointExtension></extensions>
      </trkpt>
      <trkpt lat="41.3958099779" lon="2.20755483314">
        <ele>30.6</ele>
        <time>2011-05-31T14:57:24Z</time>
        <extensions><gpxtpx:TrackPointExtension><gpxtpx:hr>148</gpxtpx:hr></gpxtpx:TrackPointExtension></extensions>
      </trkpt>
      <trkpt lat="41.3959501233" lon="2.20770629407">
        <ele>30.6</ele>
        <time>2011-05-31T14:57:29Z</time>
        <extensions><gpxtpx:TrackPointExtension><gpxtpx:hr>148</gpxtpx:hr></gpxtpx:TrackPointExtension></extensions>
      </trkpt>
      <trkpt lat="41.3960899334" lon="2.20785842555">
        <ele>30.6</ele>
        <time>2011-05-31T14:57:34Z</time>
        <extensions><gpxtpx:TrackPointExtension><gpxtpx:hr>148</gpxtpx:hr></gpxtpx:TrackPointExtension></extensions>
      </trkpt>
      <trkpt lat="41.3962149075" lon="2.20805489729">
        <ele>30.6</ele>
        <time>2011-05-31T14:57:40Z</time>
        <extensions><gpxtpx:TrackPointExtension><gpxtpx:hr>149</gpxtpx:hr></gpxtpx:TrackPointExtension></extensions>
      </trkpt>
      <trkpt lat="41.3963492693" lon="2.20821700324">
        <ele>30.6</ele>
        <time>2011-05-31T14:57:45Z</time>
        <extensions><gpxtpx:TrackPointExtension><gpxtpx:hr>149</gpxtpx:hr></gpxtpx:TrackPointExtension></extensions>
      </trkpt>
      <trkpt lat="41.3964612515" lon="2.20834465957">
        <ele>30.6</ele>
        <time>2011-05-31T14:57:49Z</time>
        <extensions><gpxtpx:TrackPointExtension><gpxtpx:hr>148</gpxtpx:hr></gpxtpx:TrackPointExtension></extensions>
      </trkpt>
      <trkpt lat="41.3965970383" lon="2.20854280769">
        <ele>30.6</ele>
        <time>2011-05-31T14:57:55Z</time>
        <extensions><gpxtpx:TrackPointExtension><gpxtpx:hr>145</gpxtpx:hr></gpxtpx:TrackPointExtension></extensions>
      </trkpt>
      <trkpt lat="41.3967388601" lon="2.20874321892">
        <ele>30.6</ele>
        <time>2011-05-31T14:58:01Z</time>
        <extensions><gpxtpx:TrackPointExtension><gpxtpx:hr>144</gpxtpx:hr></gpxtpx:TrackPointExtension></extensions>
      </trkpt>
      <trkpt lat="41.3968643371" lon="2.208919155">
        <ele>30.6</ele>
        <time>2011-05-31T14:58:06Z</time>
        <extensions><gpxtpx:TrackPointExtension><gpxtpx:hr>143</gpxtpx:hr></gpxtpx:TrackPointExtension></extensions>
      </trkpt>
      <trkpt lat="41.3969461444" lon="2.20913800641">
        <ele>30.6</ele>
        <time>2011-05-31T14:58:11Z</time>
        <extensions><gpxtpx:TrackPointExtension><gpxtpx:hr>144</gpxtpx:hr></gpxtpx:TrackPointExtension></extensions>
      </trkpt>
      <trkpt lat="41.3970640778" lon="2.20936808956">
        <ele>30.6</ele>
        <time>2011-05-31T14:58:17Z</time>
        <extensions><gpxtpx:TrackPointExtension><gpxtpx:hr>144</gpxtpx:hr></gpxtpx:TrackPointExtension></extensions>
      </trkpt>
      <trkpt lat="41.3971784069" lon="2.20960060347">
        <ele>30.6</ele>
        <time>2011-05-31T14:58:23Z</time>
        <extensions><gpxtpx:TrackPointExtension><gpxtpx:hr>144</gpxtpx:hr></gpxtpx:TrackPointExtension></extensions>
      </trkpt>
      <trkpt lat="41.3972685123" lon="2.20981534775">
        <ele>30.6</ele>
        <time>2011-05-31T14:58:28Z</time>
        <extensions><gpxtpx:TrackPointExtension><gpxtpx:hr>145</gpxtpx:hr></gpxtpx:TrackPointExtension></extensions>
      </trkpt>
      <trkpt lat="41.3973504035" lon="2.20997535822">
        <ele>30.6</ele>
        <time>2011-05-31T14:58:32Z</time>
        <extensions><gpxtpx:TrackPointExtension><gpxtpx:hr>146</gpxtpx:hr></gpxtpx:TrackPointExtension></extensions>
      </trkpt>
      <trkpt lat="41.3974059755" lon="2.21015112666">
        <ele>30</ele>
        <time>2011-05-31T14:58:36Z</time>
        <extensions><gpxtpx:TrackPointExtension><gpxtpx:hr>146</gpxtpx:hr></gpxtpx:TrackPointExtension></extensions>
      </trkpt>
      <trkpt lat="41.3974921414" lon="2.21036142853">
        <ele>29.4</ele>
        <time>2011-05-31T14:58:41Z</time>
        <extensions><gpxtpx:TrackPointExtension><gpxtpx:hr>145</gpxtpx:hr></gpxtpx:TrackPointExtension></extensions>
      </trkpt>
      <trkpt lat="41.3975914669" lon="2.21053359276">
        <ele>29</ele>
        <time>2011-05-31T14:58:46Z</time>
        <extensions><gpxtpx:TrackPointExtension><gpxtpx:hr>146</gpxtpx:hr></gpxtpx:TrackPointExtension></extensions>
      </trkpt>
      <trkpt lat="41.3977451072" lon="2.21064071344">
        <ele>28.8</ele>
        <time>2011-05-31T14:58:51Z</time>
        <extensions><gpxtpx:TrackPointExtension><gpxtpx:hr>148</gpxtpx:hr></gpxtpx:TrackPointExtension></extensions>
      </trkpt>
      <trkpt lat="41.3978782955" lon="2.21075152216">
        <ele>28.8</ele>
        <time>2011-05-31T14:58:56Z</time>
        <extensions><gpxtpx:TrackPointExtension><gpxtpx:hr>149</gpxtpx:hr></gpxtpx:TrackPointExtension></extensions>
      </trkpt>
      <trkpt lat="41.3980147529" lon="2.2108756581">
        <ele>28.6</ele>
        <time>2011-05-31T14:59:01Z</time>
        <extensions><gpxtpx:TrackPointExtension><gpxtpx:hr>150</gpxtpx:hr></gpxtpx:TrackPointExtension></extensions>
      </trkpt>
      <trkpt lat="41.3981739252" lon="2.2110247721">
        <ele>29</ele>
        <time>2011-05-31T14:59:07Z</time>
        <extensions><gpxtpx:TrackPointExtension><gpxtpx:hr>150</gpxtpx:hr></gpxtpx:TrackPointExtension></extensions>
      </trkpt>
      <trkpt lat="41.3983162498" lon="2.21113599991">
        <ele>29.6</ele>
        <time>2011-05-31T14:59:12Z</time>
        <extensions><gpxtpx:TrackPointExtension><gpxtpx:hr>151</gpxtpx:hr></gpxtpx:TrackPointExtension></extensions>
      </trkpt>
      <trkpt lat="41.3984538806" lon="2.21123985165">
        <ele>30</ele>
        <time>2011-05-31T14:59:17Z</time>
        <extensions><gpxtpx:TrackPointExtension><gpxtpx:hr>150</gpxtpx:hr></gpxtpx:TrackPointExtension></extensions>
      </trkpt>
      <trkpt lat="41.3986358517" lon="2.21137253713">
        <ele>30.2</ele>
        <time>2011-05-31T14:59:23Z</time>
        <extensions><gpxtpx:TrackPointExtension><gpxtpx:hr>151</gpxtpx:hr></gpxtpx:TrackPointExtension></extensions>
      </trkpt>
      <trkpt lat="41.3987459898" lon="2.21146155291">
        <ele>30.4</ele>
        <time>2011-05-31T14:59:27Z</time>
        <extensions><gpxtpx:TrackPointExtension><gpxtpx:hr>151</gpxtpx:hr></gpxtpx:TrackPointExtension></extensions>
      </trkpt>
      <trkpt lat="41.3988625821" lon="2.21155224506">
        <ele>30.4</ele>
        <time>2011-05-31T14:59:31Z</time>
        <extensions><gpxtpx:TrackPointExtension><gpxtpx:hr>150</gpxtpx:hr></gpxtpx:TrackPointExtension></extensions>
      </trkpt>
      <trkpt lat="41.3990308068" lon="2.2116820807">
        <ele>30.4</ele>
        <time>2011-05-31T14:59:37Z</time>
        <extensions><gpxtpx:TrackPointExtension><gpxtpx:hr>151</gpxtpx:hr></gpxtpx:TrackPointExtension></extensions>
      </trkpt>
      <trkpt lat="41.3991999535" lon="2.2118188733">
        <ele>30.6</ele>
        <time>2011-05-31T14:59:43Z</time>
        <extensions><gpxtpx:TrackPointExtension><gpxtpx:hr>152</gpxtpx:hr></gpxtpx:TrackPointExtension></extensions>
      </trkpt>
      <trkpt lat="41.3993718663" lon="2.21195231315">
        <ele>30.4</ele>
        <time>2011-05-31T14:59:49Z</time>
        <extensions><gpxtpx:TrackPointExtension><gpxtpx:hr>152</gpxtpx:hr></gpxtpx:TrackPointExtension></extensions>
      </trkpt>
      <trkpt lat="41.3994301205" lon="2.2119984136">
        <ele>30</ele>
        <time>2011-05-31T14:59:51Z</time>
        <extensions><gpxtpx:TrackPointExtension><gpxtpx:hr>152</gpxtpx:hr></gpxtpx:TrackPointExtension></extensions>
      </trkpt>
      <trkpt lat="41.3995186334" lon="2.21206538498">
        <ele>29.6</ele>
        <time>2011-05-31T14:59:54Z</time>
        <extensions><gpxtpx:TrackPointExtension><gpxtpx:hr>152</gpxtpx:hr></gpxtpx:TrackPointExtension></extensions>
      </trkpt>
      <trkpt lat="41.3996330463" lon="2.21216227975">
        <ele>29.2</ele>
        <time>2011-05-31T14:59:58Z</time>
        <extensions><gpxtpx:TrackPointExtension><gpxtpx:hr>152</gpxtpx:hr></gpxtpx:TrackPointExtension></extensions>
      </trkpt>
      <trkpt lat="41.3997042086" lon="2.21225431301">
        <ele>29</ele>
        <time>2011-05-31T15:00:01Z</time>
        <extensions><gpxtpx:TrackPointExtension><gpxtpx:hr>152</gpxtpx:hr></gpxtpx:TrackPointExtension></extensions>
      </trkpt>
      <trkpt lat="41.3997588586" lon="2.21245187439">
        <ele>28.8</ele>
        <time>2011-05-31T15:00:06Z</time>
        <extensions><gpxtpx:TrackPointExtension><gpxtpx:hr>153</gpxtpx:hr></gpxtpx:TrackPointExtension></extensions>
      </trkpt>
      <trkpt lat="41.399779981" lon="2.21248196541">
        <ele>28.8</ele>
        <time>2011-05-31T15:00:07Z</time>
        <extensions><gpxtpx:TrackPointExtension><gpxtpx:hr>153</gpxtpx:hr></gpxtpx:TrackPointExtension></extensions>
      </trkpt>
      <trkpt lat="41.3999495469" lon="2.21270064918">
        <ele>28.6</ele>
        <time>2011-05-31T15:00:14Z</time>
        <extensions><gpxtpx:TrackPointExtension><gpxtpx:hr>152</gpxtpx:hr></gpxtpx:TrackPointExtension></extensions>
      </trkpt>
      <trkpt lat="41.400085166" lon="2.21290022222">
        <ele>28.6</ele>
        <time>2011-05-31T15:00:20Z</time>
        <extensions><gpxtpx:TrackPointExtension><gpxtpx:hr>151</gpxtpx:hr></gpxtpx:TrackPointExtension></extensions>
      </trkpt>
      <trkpt lat="41.400208799" lon="2.2131251086">
        <ele>28.6</ele>
        <time>2011-05-31T15:00:26Z</time>
        <extensions><gpxtpx:TrackPointExtension><gpxtpx:hr>150</gpxtpx:hr></gpxtpx:TrackPointExtension></extensions>
      </trkpt>
      <trkpt lat="41.4003095495" lon="2.21330766638">
        <ele>28.6</ele>
        <time>2011-05-31T15:00:31Z</time>
        <extensions><gpxtpx:TrackPointExtension><gpxtpx:hr>151</gpxtpx:hr></gpxtpx:TrackPointExtension></extensions>
      </trkpt>
      <trkpt lat="41.4004297459" lon="2.21355317223">
        <ele>28.6</ele>
        <time>2011-05-31T15:00:38Z</time>
        <extensions><gpxtpx:TrackPointExtension><gpxtpx:hr>150</gpxtpx:hr></gpxtpx:TrackPointExtension></extensions>
      </trkpt>
      <trkpt lat="41.4005557259" lon="2.21372533646">
        <ele>28.6</ele>
        <time>2011-05-31T15:00:44Z</time>
        <extensions><gpxtpx:TrackPointExtension><gpxtpx:hr>153</gpxtpx:hr></gpxtpx:TrackPointExtension></extensions>
      </trkpt>
      <trkpt lat="41.4006819573" lon="2.21384804747">
        <ele>28.6</ele>
        <time>2011-05-31T15:00:48Z</time>
        <extensions><gpxtpx:TrackPointExtension><gpxtpx:hr>153</gpxtpx:hr></gpxtpx:TrackPointExtension></extensions>
      </trkpt>
      <trkpt lat="41.400838615" lon="2.21396790864">
        <ele>28.6</ele>
        <time>2011-05-31T15:00:53Z</time>
        <extensions><gpxtpx:TrackPointExtension><gpxtpx:hr>155</gpxtpx:hr></gpxtpx:TrackPointExtension></extensions>
      </trkpt>
      <trkpt lat="41.4009645111" lon="2.21404342956">
        <ele>28</ele>
        <time>2011-05-31T15:00:57Z</time>
        <extensions><gpxtpx:TrackPointExtension><gpxtpx:hr>156</gpxtpx:hr></gpxtpx:TrackPointExtension></extensions>
      </trkpt>
      <trkpt lat="41.4011354181" lon="2.21413278062">
        <ele>27.4</ele>
        <time>2011-05-31T15:01:02Z</time>
        <extensions><gpxtpx:TrackPointExtension><gpxtpx:hr>156</gpxtpx:hr></gpxtpx:TrackPointExtension></extensions>
      </trkpt>
      <trkpt lat="41.4013158804" lon="2.21422514916">
        <ele>27</ele>
        <time>2011-05-31T15:01:07Z</time>
        <extensions><gpxtpx:TrackPointExtension><gpxtpx:hr>157</gpxtpx:hr></gpxtpx:TrackPointExtension></extensions>
      </trkpt>
      <trkpt lat="41.4014559419" lon="2.21430117299">
        <ele>26.8</ele>
        <time>2011-05-31T15:01:12Z</time>
        <extensions><gpxtpx:TrackPointExtension><gpxtpx:hr>156</gpxtpx:hr></gpxtpx:TrackPointExtension></extensions>
      </trkpt>
      <trkpt lat="41.4015788206" lon="2.21438004667">
        <ele>26.8</ele>
        <time>2011-05-31T15:01:16Z</time>
        <extensions><gpxtpx:TrackPointExtension><gpxtpx:hr>154</gpxtpx:hr></gpxtpx:TrackPointExtension></extensions>
      </trkpt>
      <trkpt lat="41.4017566845" lon="2.21446780516">
        <ele>26.6</ele>
        <time>2011-05-31T15:01:21Z</time>
        <extensions><gpxtpx:TrackPointExtension><gpxtpx:hr>153</gpxtpx:hr></gpxtpx:TrackPointExtension></extensions>
      </trkpt>
      <trkpt lat="41.4019368953" lon="2.21455615039">
        <ele>26.6</ele>
        <time>2011-05-31T15:01:26Z</time>
        <extensions><gpxtpx:TrackPointExtension><gpxtpx:hr>154</gpxtpx:hr></gpxtpx:TrackPointExtension></extensions>
      </trkpt>
      <trkpt lat="41.4021271645" lon="2.2146739999">
        <ele>26.6</ele>
        <time>2011-05-31T15:01:32Z</time>
        <extensions><gpxtpx:TrackPointExtension><gpxtpx:hr>156</gpxtpx:hr></gpxtpx:TrackPointExtension></extensions>
      </trkpt>
      <trkpt lat="41.4022886837" lon="2.21478539535">
        <ele>26.6</ele>
        <time>2011-05-31T15:01:37Z</time>
        <extensions><gpxtpx:TrackPointExtension><gpxtpx:hr>157</gpxtpx:hr></gpxtpx:TrackPointExtension></extensions>
      </trkpt>
      <trkpt lat="41.4024870833" lon="2.214925876">
        <ele>26.6</ele>
        <time>2011-05-31T15:01:43Z</time>
        <extensions><gpxtpx:TrackPointExtension><gpxtpx:hr>159</gpxtpx:hr></gpxtpx:TrackPointExtension></extensions>
      </trkpt>
      <trkpt lat="41.4025542223" lon="2.21497155735">
        <ele>26.6</ele>
        <time>2011-05-31T15:01:45Z</time>
        <extensions><gpxtpx:TrackPointExtension><gpxtpx:hr>159</gpxtpx:hr></gpxtpx:TrackPointExtension></extensions>
      </trkpt>
      <trkpt lat="41.4027261351" lon="2.21510625448">
        <ele>26.6</ele>
        <time>2011-05-31T15:01:50Z</time>
        <extensions><gpxtpx:TrackPointExtension><gpxtpx:hr>162</gpxtpx:hr></gpxtpx:TrackPointExtension></extensions>
      </trkpt>
      <trkpt lat="41.402918332" lon="2.21528981809">
        <ele>26.6</ele>
        <time>2011-05-31T15:01:56Z</time>
        <extensions><gpxtpx:TrackPointExtension><gpxtpx:hr>163</gpxtpx:hr></gpxtpx:TrackPointExtension></extensions>
      </trkpt>
      <trkpt lat="41.4030823658" lon="2.21544236867">
        <ele>26.6</ele>
        <time>2011-05-31T15:02:01Z</time>
        <extensions><gpxtpx:TrackPointExtension><gpxtpx:hr>164</gpxtpx:hr></gpxtpx:TrackPointExtension></extensions>
      </trkpt>
      <trkpt lat="41.4031529414" lon="2.21550682548">
        <ele>26.6</ele>
        <time>2011-05-31T15:02:03Z</time>
        <extensions><gpxtpx:TrackPointExtension><gpxtpx:hr>164</gpxtpx:hr></gpxtpx:TrackPointExtension></extensions>
      </trkpt>
      <trkpt lat="41.4033116108" lon="2.21567077545">
        <ele>26.6</ele>
        <time>2011-05-31T15:02:08Z</time>
        <extensions><gpxtpx:TrackPointExtension><gpxtpx:hr>164</gpxtpx:hr></gpxtpx:TrackPointExtension></extensions>
      </trkpt>
      <trkpt lat="41.4034980242" lon="2.21588342425">
        <ele>26.6</ele>
        <time>2011-05-31T15:02:14Z</time>
        <extensions><gpxtpx:TrackPointExtension><gpxtpx:hr>165</gpxtpx:hr></gpxtpx:TrackPointExtension></extensions>
      </trkpt>
      <trkpt lat="41.4035258521" lon="2.21591946642">
        <ele>26.6</ele>
        <time>2011-05-31T15:02:15Z</time>
        <extensions><gpxtpx:TrackPointExtension><gpxtpx:hr>165</gpxtpx:hr></gpxtpx:TrackPointExtension></extensions>
      </trkpt>
      <trkpt lat="41.4036621418" lon="2.21610437114">
        <ele>26.6</ele>
        <time>2011-05-31T15:02:20Z</time>
        <extensions><gpxtpx:TrackPointExtension><gpxtpx:hr>165</gpxtpx:hr></gpxtpx:TrackPointExtension></extensions>
      </trkpt>
      <trkpt lat="41.4038043827" lon="2.21629011404">
        <ele>26.6</ele>
        <time>2011-05-31T15:02:25Z</time>
        <extensions><gpxtpx:TrackPointExtension><gpxtpx:hr>165</gpxtpx:hr></gpxtpx:TrackPointExtension></extensions>
      </trkpt>
      <trkpt lat="41.4039080668" lon="2.21643889276">
        <ele>26.6</ele>
        <time>2011-05-31T15:02:29Z</time>
        <extensions><gpxtpx:TrackPointExtension><gpxtpx:hr>165</gpxtpx:hr></gpxtpx:TrackPointExtension></extensions>
      </trkpt>
      <trkpt lat="41.4040520678" lon="2.2165930359">
        <ele>26.6</ele>
        <time>2011-05-31T15:02:34Z</time>
        <extensions><gpxtpx:TrackPointExtension><gpxtpx:hr>164</gpxtpx:hr></gpxtpx:TrackPointExtension></extensions>
      </trkpt>
      <trkpt lat="41.4042202925" lon="2.21671423818">
        <ele>26.6</ele>
        <time>2011-05-31T15:02:39Z</time>
        <extensions><gpxtpx:TrackPointExtension><gpxtpx:hr>165</gpxtpx:hr></gpxtpx:TrackPointExtension></extensions>
      </trkpt>
      <trkpt lat="41.4043798839" lon="2.21687282373">
        <ele>26.6</ele>
        <time>2011-05-31T15:02:44Z</time>
        <extensions><gpxtpx:TrackPointExtension><gpxtpx:hr>166</gpxtpx:hr></gpxtpx:TrackPointExtension></extensions>
      </trkpt>
      <trkpt lat="41.4045341947" lon="2.21704180283">
        <ele>26.6</ele>
        <time>2011-05-31T15:02:49Z</time>
        <extensions><gpxtpx:TrackPointExtension><gpxtpx:hr>166</gpxtpx:hr></gpxtpx:TrackPointExtension></extensions>
      </trkpt>
      <trkpt lat="41.4046795368" lon="2.21722670755">
        <ele>26.6</ele>
        <time>2011-05-31T15:02:54Z</time>
        <extensions><gpxtpx:TrackPointExtension><gpxtpx:hr>167</gpxtpx:hr></gpxtpx:TrackPointExtension></extensions>
      </trkpt>
      <trkpt lat="41.4048208557" lon="2.2174113608">
        <ele>26.6</ele>
        <time>2011-05-31T15:02:59Z</time>
        <extensions><gpxtpx:TrackPointExtension><gpxtpx:hr>167</gpxtpx:hr></gpxtpx:TrackPointExtension></extensions>
      </trkpt>
      <trkpt lat="41.4049584865" lon="2.21758897326">
        <ele>26.6</ele>
        <time>2011-05-31T15:03:04Z</time>
        <extensions><gpxtpx:TrackPointExtension><gpxtpx:hr>168</gpxtpx:hr></gpxtpx:TrackPointExtension></extensions>
      </trkpt>
      <trkpt lat="41.4051034095" lon="2.21776968703">
        <ele>26.6</ele>
        <time>2011-05-31T15:03:09Z</time>
        <extensions><gpxtpx:TrackPointExtension><gpxtpx:hr>169</gpxtpx:hr></gpxtpx:TrackPointExtension></extensions>
      </trkpt>
      <trkpt lat="41.4052556248" lon="2.21795056843">
        <ele>26.6</ele>
        <time>2011-05-31T15:03:14Z</time>
        <extensions><gpxtpx:TrackPointExtension><gpxtpx:hr>170</gpxtpx:hr></gpxtpx:TrackPointExtension></extensions>
      </trkpt>
      <trkpt lat="41.4053966922" lon="2.21812625305">
        <ele>26.6</ele>
        <time>2011-05-31T15:03:19Z</time>
        <extensions><gpxtpx:TrackPointExtension><gpxtpx:hr>170</gpxtpx:hr></gpxtpx:TrackPointExtension></extensions>
      </trkpt>
      <trkpt lat="41.4055463091" lon="2.21830218913">
        <ele>26.6</ele>
        <time>2011-05-31T15:03:24Z</time>
        <extensions><gpxtpx:TrackPointExtension><gpxtpx:hr>170</gpxtpx:hr></gpxtpx:TrackPointExtension></extensions>
      </trkpt>
      <trkpt lat="41.4057025477" lon="2.21846890512">
        <ele>27.4</ele>
        <time>2011-05-31T15:03:29Z</time>
        <extensions><gpxtpx:TrackPointExtension><gpxtpx:hr>170</gpxtpx:hr></gpxtpx:TrackPointExtension></extensions>
      </trkpt>
      <trkpt lat="41.4057654958" lon="2.21853763671">
        <ele>27.6</ele>
        <time>2011-05-31T15:03:31Z</time>
        <extensions><gpxtpx:TrackPointExtension><gpxtpx:hr>170</gpxtpx:hr></gpxtpx:TrackPointExtension></extensions>
      </trkpt>
      <trkpt lat="41.4058592055" lon="2.21863964443">
        <ele>28</ele>
        <time>2011-05-31T15:03:34Z</time>
        <extensions><gpxtpx:TrackPointExtension><gpxtpx:hr>170</gpxtpx:hr></gpxtpx:TrackPointExtension></extensions>
      </trkpt>
      <trkpt lat="41.4060101635" lon="2.21885908257">
        <ele>28.2</ele>
        <time>2011-05-31T15:03:40Z</time>
        <extensions><gpxtpx:TrackPointExtension><gpxtpx:hr>169</gpxtpx:hr></gpxtpx:TrackPointExtension></extensions>
      </trkpt>
      <trkpt lat="41.4061425137" lon="2.21905002225">
        <ele>28.4</ele>
        <time>2011-05-31T15:03:45Z</time>
        <extensions><gpxtpx:TrackPointExtension><gpxtpx:hr>169</gpxtpx:hr></gpxtpx:TrackPointExtension></extensions>
      </trkpt>
      <trkpt lat="41.406273858" lon="2.21922193502">
        <ele>28.6</ele>
        <time>2011-05-31T15:03:50Z</time>
        <extensions><gpxtpx:TrackPointExtension><gpxtpx:hr>169</gpxtpx:hr></gpxtpx:TrackPointExtension></extensions>
      </trkpt>
      <trkpt lat="41.4064002571" lon="2.2192791834">
        <ele>28.6</ele>
        <time>2011-05-31T15:03:54Z</time>
        <extensions><gpxtpx:TrackPointExtension><gpxtpx:hr>169</gpxtpx:hr></gpxtpx:TrackPointExtension></extensions>
      </trkpt>
      <trkpt lat="41.4064302643" lon="2.21927993777">
        <ele>28.6</ele>
        <time>2011-05-31T15:03:55Z</time>
        <extensions><gpxtpx:TrackPointExtension><gpxtpx:hr>169</gpxtpx:hr></gpxtpx:TrackPointExtension></extensions>
      </trkpt>
      <trkpt lat="41.406474856" lon="2.21928085978">
        <ele>28.6</ele>
        <time>2011-05-31T15:03:57Z</time>
        <extensions><gpxtpx:TrackPointExtension><gpxtpx:hr>168</gpxtpx:hr></gpxtpx:TrackPointExtension></extensions>
      </trkpt>
      <trkpt lat="41.4064353773" lon="2.21932058998">
        <ele>28.6</ele>
        <time>2011-05-31T15:04:01Z</time>
        <extensions><gpxtpx:TrackPointExtension><gpxtpx:hr>168</gpxtpx:hr></gpxtpx:TrackPointExtension></extensions>
      </trkpt>
      <trkpt lat="41.406410483" lon="2.21931514175">
        <ele>28.6</ele>
        <time>2011-05-31T15:04:02Z</time>
        <extensions><gpxtpx:TrackPointExtension><gpxtpx:hr>168</gpxtpx:hr></gpxtpx:TrackPointExtension></extensions>
      </trkpt>
      <trkpt lat="41.4062443538" lon="2.21927331607">
        <ele>28.6</ele>
        <time>2011-05-31T15:04:07Z</time>
        <extensions><gpxtpx:TrackPointExtension><gpxtpx:hr>167</gpxtpx:hr></gpxtpx:TrackPointExtension></extensions>
      </trkpt>
      <trkpt lat="41.4060743688" lon="2.21913157814">
        <ele>28.6</ele>
        <time>2011-05-31T15:04:12Z</time>
        <extensions><gpxtpx:TrackPointExtension><gpxtpx:hr>165</gpxtpx:hr></gpxtpx:TrackPointExtension></extensions>
      </trkpt>
      <trkpt lat="41.4059138554" lon="2.21897500425">
        <ele>29.4</ele>
        <time>2011-05-31T15:04:17Z</time>
        <extensions><gpxtpx:TrackPointExtension><gpxtpx:hr>165</gpxtpx:hr></gpxtpx:TrackPointExtension></extensions>
      </trkpt>
      <trkpt lat="41.4057530906" lon="2.21880954554">
        <ele>29.8</ele>
        <time>2011-05-31T15:04:22Z</time>
        <extensions><gpxtpx:TrackPointExtension><gpxtpx:hr>165</gpxtpx:hr></gpxtpx:TrackPointExtension></extensions>
      </trkpt>
      <trkpt lat="41.4055788309" lon="2.21864182372">
        <ele>30.2</ele>
        <time>2011-05-31T15:04:27Z</time>
        <extensions><gpxtpx:TrackPointExtension><gpxtpx:hr>165</gpxtpx:hr></gpxtpx:TrackPointExtension></extensions>
      </trkpt>
      <trkpt lat="41.4054210835" lon="2.21848030451">
        <ele>30.4</ele>
        <time>2011-05-31T15:04:32Z</time>
        <extensions><gpxtpx:TrackPointExtension><gpxtpx:hr>166</gpxtpx:hr></gpxtpx:TrackPointExtension></extensions>
      </trkpt>
      <trkpt lat="41.4052702932" lon="2.21832482026">
        <ele>30.4</ele>
        <time>2011-05-31T15:04:36Z</time>
        <extensions><gpxtpx:TrackPointExtension><gpxtpx:hr>166</gpxtpx:hr></gpxtpx:TrackPointExtension></extensions>
      </trkpt>
      <trkpt lat="41.4052331613" lon="2.21828617971">
        <ele>30.6</ele>
        <time>2011-05-31T15:04:37Z</time>
        <extensions><gpxtpx:TrackPointExtension><gpxtpx:hr>166</gpxtpx:hr></gpxtpx:TrackPointExtension></extensions>
      </trkpt>
      <trkpt lat="41.4050757493" lon="2.21813966409">
        <ele>30.6</ele>
        <time>2011-05-31T15:04:41Z</time>
        <extensions><gpxtpx:TrackPointExtension><gpxtpx:hr>166</gpxtpx:hr></gpxtpx:TrackPointExtension></extensions>
      </trkpt>
      <trkpt lat="41.4050416349" lon="2.21810622031">
        <ele>30.6</ele>
        <time>2011-05-31T15:04:42Z</time>
        <extensions><gpxtpx:TrackPointExtension><gpxtpx:hr>166</gpxtpx:hr></gpxtpx:TrackPointExtension></extensions>
      </trkpt>
      <trkpt lat="41.4049698859" lon="2.21803589617">
        <ele>30.4</ele>
        <time>2011-05-31T15:04:44Z</time>
        <extensions><gpxtpx:TrackPointExtension><gpxtpx:hr>166</gpxtpx:hr></gpxtpx:TrackPointExtension></extensions>
      </trkpt>
      <trkpt lat="41.4047320914" lon="2.21776960321">
        <ele>29</ele>
        <time>2011-05-31T15:04:51Z</time>
        <extensions><gpxtpx:TrackPointExtension><gpxtpx:hr>167</gpxtpx:hr></gpxtpx:TrackPointExtension></extensions>
      </trkpt>
      <trkpt lat="41.4045732544" lon="2.217580759">
        <ele>27.6</ele>
        <time>2011-05-31T15:04:56Z</time>
        <extensions><gpxtpx:TrackPointExtension><gpxtpx:hr>167</gpxtpx:hr></gpxtpx:TrackPointExtension></extensions>
      </trkpt>
      <trkpt lat="41.404410394" lon="2.21740440383">
        <ele>26</ele>
        <time>2011-05-31T15:05:01Z</time>
        <extensions><gpxtpx:TrackPointExtension><gpxtpx:hr>167</gpxtpx:hr></gpxtpx:TrackPointExtension></extensions>
      </trkpt>
      <trkpt lat="41.4042703325" lon="2.21723291015">
        <ele>24.4</ele>
        <time>2011-05-31T15:05:06Z</time>
        <extensions><gpxtpx:TrackPointExtension><gpxtpx:hr>167</gpxtpx:hr></gpxtpx:TrackPointExtension></extensions>
      </trkpt>
      <trkpt lat="41.4041275049" lon="2.21705429186">
        <ele>23.2</ele>
        <time>2011-05-31T15:05:11Z</time>
        <extensions><gpxtpx:TrackPointExtension><gpxtpx:hr>165</gpxtpx:hr></gpxtpx:TrackPointExtension></extensions>
      </trkpt>
      <trkpt lat="41.4039777204" lon="2.21687986452">
        <ele>21.6</ele>
        <time>2011-05-31T15:05:16Z</time>
        <extensions><gpxtpx:TrackPointExtension><gpxtpx:hr>162</gpxtpx:hr></gpxtpx:TrackPointExtension></extensions>
      </trkpt>
      <trkpt lat="41.403821817" lon="2.2167006595">
        <ele>20.6</ele>
        <time>2011-05-31T15:05:21Z</time>
        <extensions><gpxtpx:TrackPointExtension><gpxtpx:hr>164</gpxtpx:hr></gpxtpx:TrackPointExtension></extensions>
      </trkpt>
      <trkpt lat="41.4036704399" lon="2.21649739843">
        <ele>19.8</ele>
        <time>2011-05-31T15:05:26Z</time>
        <extensions><gpxtpx:TrackPointExtension><gpxtpx:hr>167</gpxtpx:hr></gpxtpx:TrackPointExtension></extensions>
      </trkpt>
      <trkpt lat="41.403529624" lon="2.21629028168">
        <ele>19</ele>
        <time>2011-05-31T15:05:31Z</time>
        <extensions><gpxtpx:TrackPointExtension><gpxtpx:hr>168</gpxtpx:hr></gpxtpx:TrackPointExtension></extensions>
      </trkpt>
      <trkpt lat="41.4034739682" lon="2.21621233001">
        <ele>18.6</ele>
        <time>2011-05-31T15:05:33Z</time>
        <extensions><gpxtpx:TrackPointExtension><gpxtpx:hr>169</gpxtpx:hr></gpxtpx:TrackPointExtension></extensions>
      </trkpt>
      <trkpt lat="41.4033268658" lon="2.2160384894">
        <ele>17.8</ele>
        <time>2011-05-31T15:05:38Z</time>
        <extensions><gpxtpx:TrackPointExtension><gpxtpx:hr>170</gpxtpx:hr></gpxtpx:TrackPointExtension></extensions>
      </trkpt>
      <trkpt lat="41.4030948548" lon="2.2158646488">
        <ele>17.4</ele>
        <time>2011-05-31T15:05:45Z</time>
        <extensions><gpxtpx:TrackPointExtension><gpxtpx:hr>171</gpxtpx:hr></gpxtpx:TrackPointExtension></extensions>
      </trkpt>
      <trkpt lat="41.4030472456" lon="2.21582458331">
        <ele>17.2</ele>
        <time>2011-05-31T15:05:46Z</time>
        <extensions><gpxtpx:TrackPointExtension><gpxtpx:hr>171</gpxtpx:hr></gpxtpx:TrackPointExtension></extensions>
      </trkpt>
      <trkpt lat="41.4028457448" lon="2.21562987178">
        <ele>16.4</ele>
        <time>2011-05-31T15:05:52Z</time>
        <extensions><gpxtpx:TrackPointExtension><gpxtpx:hr>171</gpxtpx:hr></gpxtpx:TrackPointExtension></extensions>
      </trkpt>
      <trkpt lat="41.4026788611" lon="2.21546206614">
        <ele>15.8</ele>
        <time>2011-05-31T15:05:57Z</time>
        <extensions><gpxtpx:TrackPointExtension><gpxtpx:hr>171</gpxtpx:hr></gpxtpx:TrackPointExtension></extensions>
      </trkpt>
      <trkpt lat="41.4025076189" lon="2.21529870291">
        <ele>15.4</ele>
        <time>2011-05-31T15:06:02Z</time>
        <extensions><gpxtpx:TrackPointExtension><gpxtpx:hr>171</gpxtpx:hr></gpxtpx:TrackPointExtension></extensions>
      </trkpt>
      <trkpt lat="41.4024690622" lon="2.21526886334">
        <ele>15.4</ele>
        <time>2011-05-31T15:06:03Z</time>
        <extensions><gpxtpx:TrackPointExtension><gpxtpx:hr>171</gpxtpx:hr></gpxtpx:TrackPointExtension></extensions>
      </trkpt>
      <trkpt lat="41.4022974009" lon="2.21512896943">
        <ele>15.2</ele>
        <time>2011-05-31T15:06:08Z</time>
        <extensions><gpxtpx:TrackPointExtension><gpxtpx:hr>172</gpxtpx:hr></gpxtpx:TrackPointExtension></extensions>
      </trkpt>
      <trkpt lat="41.4021246499" lon="2.21499527813">
        <ele>15</ele>
        <time>2011-05-31T15:06:13Z</time>
        <extensions><gpxtpx:TrackPointExtension><gpxtpx:hr>172</gpxtpx:hr></gpxtpx:TrackPointExtension></extensions>
      </trkpt>
      <trkpt lat="41.4019565928" lon="2.21486619687">
        <ele>15</ele>
        <time>2011-05-31T15:06:18Z</time>
        <extensions><gpxtpx:TrackPointExtension><gpxtpx:hr>171</gpxtpx:hr></gpxtpx:TrackPointExtension></extensions>
      </trkpt>
      <trkpt lat="41.4017882004" lon="2.21475689689">
        <ele>14.8</ele>
        <time>2011-05-31T15:06:23Z</time>
        <extensions><gpxtpx:TrackPointExtension><gpxtpx:hr>171</gpxtpx:hr></gpxtpx:TrackPointExtension></extensions>
      </trkpt>
      <trkpt lat="41.4016179641" lon="2.21466352252">
        <ele>14.8</ele>
        <time>2011-05-31T15:06:28Z</time>
        <extensions><gpxtpx:TrackPointExtension><gpxtpx:hr>170</gpxtpx:hr></gpxtpx:TrackPointExtension></extensions>
      </trkpt>
      <trkpt lat="41.4014430338" lon="2.2145765184">
        <ele>14.8</ele>
        <time>2011-05-31T15:06:33Z</time>
        <extensions><gpxtpx:TrackPointExtension><gpxtpx:hr>170</gpxtpx:hr></gpxtpx:TrackPointExtension></extensions>
      </trkpt>
      <trkpt lat="41.4012698637" lon="2.21448926282">
        <ele>14.8</ele>
        <time>2011-05-31T15:06:38Z</time>
        <extensions><gpxtpx:TrackPointExtension><gpxtpx:hr>170</gpxtpx:hr></gpxtpx:TrackPointExtension></extensions>
      </trkpt>
      <trkpt lat="41.4010929218" lon="2.2143987383">
        <ele>14.8</ele>
        <time>2011-05-31T15:06:43Z</time>
        <extensions><gpxtpx:TrackPointExtension><gpxtpx:hr>170</gpxtpx:hr></gpxtpx:TrackPointExtension></extensions>
      </trkpt>
      <trkpt lat="41.400919165" lon="2.21430100535">
        <ele>14.8</ele>
        <time>2011-05-31T15:06:48Z</time>
        <extensions><gpxtpx:TrackPointExtension><gpxtpx:hr>170</gpxtpx:hr></gpxtpx:TrackPointExtension></extensions>
      </trkpt>
      <trkpt lat="41.4007434804" lon="2.21420000346">
        <ele>14.8</ele>
        <time>2011-05-31T15:06:53Z</time>
        <extensions><gpxtpx:TrackPointExtension><gpxtpx:hr>170</gpxtpx:hr></gpxtpx:TrackPointExtension></extensions>
      </trkpt>
      <trkpt lat="41.400565868" lon="2.21410461743">
        <ele>14.8</ele>
        <time>2011-05-31T15:06:58Z</time>
        <extensions><gpxtpx:TrackPointExtension><gpxtpx:hr>170</gpxtpx:hr></gpxtpx:TrackPointExtension></extensions>
      </trkpt>
      <trkpt lat="41.4003849027" lon="2.21400185534">
        <ele>14.8</ele>
        <time>2011-05-31T15:07:03Z</time>
        <extensions><gpxtpx:TrackPointExtension><gpxtpx:hr>171</gpxtpx:hr></gpxtpx:TrackPointExtension></extensions>
      </trkpt>
      <trkpt lat="41.4002129062" lon="2.21385777048">
        <ele>14.8</ele>
        <time>2011-05-31T15:07:08Z</time>
        <extensions><gpxtpx:TrackPointExtension><gpxtpx:hr>172</gpxtpx:hr></gpxtpx:TrackPointExtension></extensions>
      </trkpt>
      <trkpt lat="41.400085166" lon="2.213688037">
        <ele>14.8</ele>
        <time>2011-05-31T15:07:13Z</time>
        <extensions><gpxtpx:TrackPointExtension><gpxtpx:hr>173</gpxtpx:hr></gpxtpx:TrackPointExtension></extensions>
      </trkpt>
      <trkpt lat="41.399979135" lon="2.21348678758">
        <ele>14.8</ele>
        <time>2011-05-31T15:07:18Z</time>
        <extensions><gpxtpx:TrackPointExtension><gpxtpx:hr>174</gpxtpx:hr></gpxtpx:TrackPointExtension></extensions>
      </trkpt>
      <trkpt lat="41.3999010157" lon="2.21332074215">
        <ele>14.8</ele>
        <time>2011-05-31T15:07:21Z</time>
        <extensions><gpxtpx:TrackPointExtension><gpxtpx:hr>174</gpxtpx:hr></gpxtpx:TrackPointExtension></extensions>
      </trkpt>
      <trkpt lat="41.3998778816" lon="2.2132790841">
        <ele>14.8</ele>
        <time>2011-05-31T15:07:22Z</time>
        <extensions><gpxtpx:TrackPointExtension><gpxtpx:hr>174</gpxtpx:hr></gpxtpx:TrackPointExtension></extensions>
      </trkpt>
      <trkpt lat="41.3998108264" lon="2.21314271059">
        <ele>14.8</ele>
        <time>2011-05-31T15:07:25Z</time>
        <extensions><gpxtpx:TrackPointExtension><gpxtpx:hr>173</gpxtpx:hr></gpxtpx:TrackPointExtension></extensions>
      </trkpt>
      <trkpt lat="41.3996717707" lon="2.21289938403">
        <ele>14</ele>
        <time>2011-05-31T15:07:31Z</time>
        <extensions><gpxtpx:TrackPointExtension><gpxtpx:hr>172</gpxtpx:hr></gpxtpx:TrackPointExtension></extensions>
      </trkpt>
      <trkpt lat="41.3995440305" lon="2.21270886345">
        <ele>13.6</ele>
        <time>2011-05-31T15:07:36Z</time>
        <extensions><gpxtpx:TrackPointExtension><gpxtpx:hr>172</gpxtpx:hr></gpxtpx:TrackPointExtension></extensions>
      </trkpt>
      <trkpt lat="41.3994069865" lon="2.21253418465">
        <ele>13.2</ele>
        <time>2011-05-31T15:07:41Z</time>
        <extensions><gpxtpx:TrackPointExtension><gpxtpx:hr>172</gpxtpx:hr></gpxtpx:TrackPointExtension></extensions>
      </trkpt>
      <trkpt lat="41.3993815055" lon="2.21250317162">
        <ele>13.2</ele>
        <time>2011-05-31T15:07:42Z</time>
        <extensions><gpxtpx:TrackPointExtension><gpxtpx:hr>172</gpxtpx:hr></gpxtpx:TrackPointExtension></extensions>
      </trkpt>
      <trkpt lat="41.3992841916" lon="2.21239328491">
        <ele>13</ele>
        <time>2011-05-31T15:07:46Z</time>
        <extensions><gpxtpx:TrackPointExtension><gpxtpx:hr>171</gpxtpx:hr></gpxtpx:TrackPointExtension></extensions>
      </trkpt>
      <trkpt lat="41.3991800046" lon="2.21227912343">
        <ele>13</ele>
        <time>2011-05-31T15:07:51Z</time>
        <extensions><gpxtpx:TrackPointExtension><gpxtpx:hr>169</gpxtpx:hr></gpxtpx:TrackPointExtension></extensions>
      </trkpt>
      <trkpt lat="41.3990595567" lon="2.21216965582">
        <ele>12.8</ele>
        <time>2011-05-31T15:07:56Z</time>
        <extensions><gpxtpx:TrackPointExtension><gpxtpx:hr>167</gpxtpx:hr></gpxtpx:TrackPointExtension></extensions>
      </trkpt>
      <trkpt lat="41.3989190761" lon="2.21205826037">
        <ele>12.8</ele>
        <time>2011-05-31T15:08:01Z</time>
        <extensions><gpxtpx:TrackPointExtension><gpxtpx:hr>166</gpxtpx:hr></gpxtpx:TrackPointExtension></extensions>
      </trkpt>
      <trkpt lat="41.3987585627" lon="2.21193412443">
        <ele>12.8</ele>
        <time>2011-05-31T15:08:07Z</time>
        <extensions><gpxtpx:TrackPointExtension><gpxtpx:hr>165</gpxtpx:hr></gpxtpx:TrackPointExtension></extensions>
      </trkpt>
      <trkpt lat="41.3985874881" lon="2.21181216778">
        <ele>12.8</ele>
        <time>2011-05-31T15:08:13Z</time>
        <extensions><gpxtpx:TrackPointExtension><gpxtpx:hr>165</gpxtpx:hr></gpxtpx:TrackPointExtension></extensions>
      </trkpt>
      <trkpt lat="41.3984059362" lon="2.21169171988">
        <ele>12.8</ele>
        <time>2011-05-31T15:08:19Z</time>
        <extensions><gpxtpx:TrackPointExtension><gpxtpx:hr>164</gpxtpx:hr></gpxtpx:TrackPointExtension></extensions>
      </trkpt>
      <trkpt lat="41.3982631086" lon="2.21158233609">
        <ele>12.8</ele>
        <time>2011-05-31T15:08:24Z</time>
        <extensions><gpxtpx:TrackPointExtension><gpxtpx:hr>163</gpxtpx:hr></gpxtpx:TrackPointExtension></extensions>
      </trkpt>
      <trkpt lat="41.3981161739" lon="2.21147982545">
        <ele>12.8</ele>
        <time>2011-05-31T15:08:29Z</time>
        <extensions><gpxtpx:TrackPointExtension><gpxtpx:hr>163</gpxtpx:hr></gpxtpx:TrackPointExtension></extensions>
      </trkpt>
      <trkpt lat="41.397935963" lon="2.21135032509">
        <ele>12.8</ele>
        <time>2011-05-31T15:08:35Z</time>
        <extensions><gpxtpx:TrackPointExtension><gpxtpx:hr>163</gpxtpx:hr></gpxtpx:TrackPointExtension></extensions>
      </trkpt>
      <trkpt lat="41.3977938898" lon="2.2112510834">
        <ele>12.8</ele>
        <time>2011-05-31T15:08:40Z</time>
        <extensions><gpxtpx:TrackPointExtension><gpxtpx:hr>162</gpxtpx:hr></gpxtpx:TrackPointExtension></extensions>
      </trkpt>
      <trkpt lat="41.3975175386" lon="2.21098479043">
        <ele>12.8</ele>
        <time>2011-05-31T15:08:50Z</time>
        <extensions><gpxtpx:TrackPointExtension><gpxtpx:hr>164</gpxtpx:hr></gpxtpx:TrackPointExtension></extensions>
      </trkpt>
      <trkpt lat="41.3974768025" lon="2.2108867222">
        <ele>12.8</ele>
        <time>2011-05-31T15:08:53Z</time>
        <extensions><gpxtpx:TrackPointExtension><gpxtpx:hr>164</gpxtpx:hr></gpxtpx:TrackPointExtension></extensions>
      </trkpt>
      <trkpt lat="41.3973236652" lon="2.21074364317">
        <ele>12.8</ele>
        <time>2011-05-31T15:08:59Z</time>
        <extensions><gpxtpx:TrackPointExtension><gpxtpx:hr>163</gpxtpx:hr></gpxtpx:TrackPointExtension></extensions>
      </trkpt>
      <trkpt lat="41.3972974299" lon="2.21071849747">
        <ele>12.8</ele>
        <time>2011-05-31T15:09:00Z</time>
        <extensions><gpxtpx:TrackPointExtension><gpxtpx:hr>164</gpxtpx:hr></gpxtpx:TrackPointExtension></extensions>
      </trkpt>
      <trkpt lat="41.3971591285" lon="2.21059913922">
        <ele>12.8</ele>
        <time>2011-05-31T15:09:05Z</time>
        <extensions><gpxtpx:TrackPointExtension><gpxtpx:hr>162</gpxtpx:hr></gpxtpx:TrackPointExtension></extensions>
      </trkpt>
      <trkpt lat="41.3971002876" lon="2.21054440541">
        <ele>12.8</ele>
        <time>2011-05-31T15:09:07Z</time>
        <extensions><gpxtpx:TrackPointExtension><gpxtpx:hr>163</gpxtpx:hr></gpxtpx:TrackPointExtension></extensions>
      </trkpt>
      <trkpt lat="41.3969684403" lon="2.21026637779">
        <ele>12.8</ele>
        <time>2011-05-31T15:09:13Z</time>
        <extensions><gpxtpx:TrackPointExtension><gpxtpx:hr>163</gpxtpx:hr></gpxtpx:TrackPointExtension></extensions>
      </trkpt>
      <trkpt lat="41.3968743116" lon="2.21004677201">
        <ele>12.8</ele>
        <time>2011-05-31T15:09:18Z</time>
        <extensions><gpxtpx:TrackPointExtension><gpxtpx:hr>163</gpxtpx:hr></gpxtpx:TrackPointExtension></extensions>
      </trkpt>
      <trkpt lat="41.3967895706" lon="2.20982532221">
        <ele>12.8</ele>
        <time>2011-05-31T15:09:23Z</time>
        <extensions><gpxtpx:TrackPointExtension><gpxtpx:hr>163</gpxtpx:hr></gpxtpx:TrackPointExtension></extensions>
      </trkpt>
      <trkpt lat="41.3966860541" lon="2.20962910193">
        <ele>12.8</ele>
        <time>2011-05-31T15:09:28Z</time>
        <extensions><gpxtpx:TrackPointExtension><gpxtpx:hr>164</gpxtpx:hr></gpxtpx:TrackPointExtension></extensions>
      </trkpt>
      <trkpt lat="41.3965422207" lon="2.20942458357">
        <ele>12.8</ele>
        <time>2011-05-31T15:09:34Z</time>
        <extensions><gpxtpx:TrackPointExtension><gpxtpx:hr>163</gpxtpx:hr></gpxtpx:TrackPointExtension></extensions>
      </trkpt>
      <trkpt lat="41.3963821264" lon="2.20924797693">
        <ele>12.8</ele>
        <time>2011-05-31T15:09:40Z</time>
        <extensions><gpxtpx:TrackPointExtension><gpxtpx:hr>163</gpxtpx:hr></gpxtpx:TrackPointExtension></extensions>
      </trkpt>
      <trkpt lat="41.3962348564" lon="2.20906617352">
        <ele>12.8</ele>
        <time>2011-05-31T15:09:46Z</time>
        <extensions><gpxtpx:TrackPointExtension><gpxtpx:hr>162</gpxtpx:hr></gpxtpx:TrackPointExtension></extensions>
      </trkpt>
      <trkpt lat="41.396091023" lon="2.20887280309">
        <ele>12.8</ele>
        <time>2011-05-31T15:09:52Z</time>
        <extensions><gpxtpx:TrackPointExtension><gpxtpx:hr>162</gpxtpx:hr></gpxtpx:TrackPointExtension></extensions>
      </trkpt>
      <trkpt lat="41.3959462676" lon="2.20866954202">
        <ele>12.8</ele>
        <time>2011-05-31T15:09:58Z</time>
        <extensions><gpxtpx:TrackPointExtension><gpxtpx:hr>161</gpxtpx:hr></gpxtpx:TrackPointExtension></extensions>
      </trkpt>
      <trkpt lat="41.3957910348" lon="2.20847541721">
        <ele>12.8</ele>
        <time>2011-05-31T15:10:04Z</time>
        <extensions><gpxtpx:TrackPointExtension><gpxtpx:hr>162</gpxtpx:hr></gpxtpx:TrackPointExtension></extensions>
      </trkpt>
      <trkpt lat="41.395665893" lon="2.20830878504">
        <ele>12.8</ele>
        <time>2011-05-31T15:10:09Z</time>
        <extensions><gpxtpx:TrackPointExtension><gpxtpx:hr>163</gpxtpx:hr></gpxtpx:TrackPointExtension></extensions>
      </trkpt>
      <trkpt lat="41.395514935" lon="2.20811683953">
        <ele>12.8</ele>
        <time>2011-05-31T15:10:15Z</time>
        <extensions><gpxtpx:TrackPointExtension><gpxtpx:hr>163</gpxtpx:hr></gpxtpx:TrackPointExtension></extensions>
      </trkpt>
      <trkpt lat="41.3953729456" lon="2.20796747407">
        <ele>12.8</ele>
        <time>2011-05-31T15:10:20Z</time>
        <extensions><gpxtpx:TrackPointExtension><gpxtpx:hr>163</gpxtpx:hr></gpxtpx:TrackPointExtension></extensions>
      </trkpt>
      <trkpt lat="41.3952210656" lon="2.20776991269">
        <ele>12.8</ele>
        <time>2011-05-31T15:10:26Z</time>
        <extensions><gpxtpx:TrackPointExtension><gpxtpx:hr>163</gpxtpx:hr></gpxtpx:TrackPointExtension></extensions>
      </trkpt>
      <trkpt lat="41.3950868714" lon="2.20759783228">
        <ele>12.8</ele>
        <time>2011-05-31T15:10:31Z</time>
        <extensions><gpxtpx:TrackPointExtension><gpxtpx:hr>164</gpxtpx:hr></gpxtpx:TrackPointExtension></extensions>
      </trkpt>
      <trkpt lat="41.3949624002" lon="2.20742206384">
        <ele>12.8</ele>
        <time>2011-05-31T15:10:36Z</time>
        <extensions><gpxtpx:TrackPointExtension><gpxtpx:hr>164</gpxtpx:hr></gpxtpx:TrackPointExtension></extensions>
      </trkpt>
      <trkpt lat="41.3948330675" lon="2.20722106588">
        <ele>12.8</ele>
        <time>2011-05-31T15:10:42Z</time>
        <extensions><gpxtpx:TrackPointExtension><gpxtpx:hr>164</gpxtpx:hr></gpxtpx:TrackPointExtension></extensions>
      </trkpt>
      <trkpt lat="41.3946968616" lon="2.20702467796">
        <ele>12.8</ele>
        <time>2011-05-31T15:10:49Z</time>
        <extensions><gpxtpx:TrackPointExtension><gpxtpx:hr>163</gpxtpx:hr></gpxtpx:TrackPointExtension></extensions>
      </trkpt>
      <trkpt lat="41.3945963626" lon="2.20688117983">
        <ele>12.8</ele>
        <time>2011-05-31T15:10:54Z</time>
        <extensions><gpxtpx:TrackPointExtension><gpxtpx:hr>163</gpxtpx:hr></gpxtpx:TrackPointExtension></extensions>
      </trkpt>
      <trkpt lat="41.394460492" lon="2.20668588156">
        <ele>12.8</ele>
        <time>2011-05-31T15:11:00Z</time>
        <extensions><gpxtpx:TrackPointExtension><gpxtpx:hr>164</gpxtpx:hr></gpxtpx:TrackPointExtension></extensions>
      </trkpt>
      <trkpt lat="41.3943215201" lon="2.20649485806">
        <ele>12.8</ele>
        <time>2011-05-31T15:11:06Z</time>
        <extensions><gpxtpx:TrackPointExtension><gpxtpx:hr>163</gpxtpx:hr></gpxtpx:TrackPointExtension></extensions>
      </trkpt>
      <trkpt lat="41.3941655329" lon="2.20633250066">
        <ele>12.8</ele>
        <time>2011-05-31T15:11:12Z</time>
        <extensions><gpxtpx:TrackPointExtension><gpxtpx:hr>163</gpxtpx:hr></gpxtpx:TrackPointExtension></extensions>
      </trkpt>
      <trkpt lat="41.3940009124" lon="2.20618942162">
        <ele>12.8</ele>
        <time>2011-05-31T15:11:18Z</time>
        <extensions><gpxtpx:TrackPointExtension><gpxtpx:hr>163</gpxtpx:hr></gpxtpx:TrackPointExtension></extensions>
      </trkpt>
      <trkpt lat="41.3938307599" lon="2.20605816107">
        <ele>12.8</ele>
        <time>2011-05-31T15:11:24Z</time>
        <extensions><gpxtpx:TrackPointExtension><gpxtpx:hr>162</gpxtpx:hr></gpxtpx:TrackPointExtension></extensions>
      </trkpt>
      <trkpt lat="41.3936571707" lon="2.20592111701">
        <ele>12.8</ele>
        <time>2011-05-31T15:11:30Z</time>
        <extensions><gpxtpx:TrackPointExtension><gpxtpx:hr>162</gpxtpx:hr></gpxtpx:TrackPointExtension></extensions>
      </trkpt>
      <trkpt lat="41.3934755349" lon="2.20579203575">
        <ele>12.8</ele>
        <time>2011-05-31T15:11:36Z</time>
        <extensions><gpxtpx:TrackPointExtension><gpxtpx:hr>163</gpxtpx:hr></gpxtpx:TrackPointExtension></extensions>
      </trkpt>
      <trkpt lat="41.3932942344" lon="2.20567309658">
        <ele>12.8</ele>
        <time>2011-05-31T15:11:42Z</time>
        <extensions><gpxtpx:TrackPointExtension><gpxtpx:hr>164</gpxtpx:hr></gpxtpx:TrackPointExtension></extensions>
      </trkpt>
      <trkpt lat="41.3931298654" lon="2.20558684683">
        <ele>12.8</ele>
        <time>2011-05-31T15:11:47Z</time>
        <extensions><gpxtpx:TrackPointExtension><gpxtpx:hr>164</gpxtpx:hr></gpxtpx:TrackPointExtension></extensions>
      </trkpt>
      <trkpt lat="41.3929447092" lon="2.20547813359">
        <ele>12.8</ele>
        <time>2011-05-31T15:11:53Z</time>
        <extensions><gpxtpx:TrackPointExtension><gpxtpx:hr>164</gpxtpx:hr></gpxtpx:TrackPointExtension></extensions>
      </trkpt>
      <trkpt lat="41.3927536857" lon="2.20536011644">
        <ele>12.8</ele>
        <time>2011-05-31T15:11:59Z</time>
        <extensions><gpxtpx:TrackPointExtension><gpxtpx:hr>165</gpxtpx:hr></gpxtpx:TrackPointExtension></extensions>
      </trkpt>
      <trkpt lat="41.3925733072" lon="2.20523648341">
        <ele>12.8</ele>
        <time>2011-05-31T15:12:05Z</time>
        <extensions><gpxtpx:TrackPointExtension><gpxtpx:hr>164</gpxtpx:hr></gpxtpx:TrackPointExtension></extensions>
      </trkpt>
      <trkpt lat="41.3924600677" lon="2.20514118121">
        <ele>12.8</ele>
        <time>2011-05-31T15:12:09Z</time>
        <extensions><gpxtpx:TrackPointExtension><gpxtpx:hr>164</gpxtpx:hr></gpxtpx:TrackPointExtension></extensions>
      </trkpt>
      <trkpt lat="41.3924038252" lon="2.2050939073">
        <ele>12.8</ele>
        <time>2011-05-31T15:12:11Z</time>
        <extensions><gpxtpx:TrackPointExtension><gpxtpx:hr>163</gpxtpx:hr></gpxtpx:TrackPointExtension></extensions>
      </trkpt>
      <trkpt lat="41.3922791025" lon="2.20496432312">
        <ele>12.8</ele>
        <time>2011-05-31T15:12:16Z</time>
        <extensions><gpxtpx:TrackPointExtension><gpxtpx:hr>163</gpxtpx:hr></gpxtpx:TrackPointExtension></extensions>
      </trkpt>
      <trkpt lat="41.3920986402" lon="2.204812024">
        <ele>12.8</ele>
        <time>2011-05-31T15:12:22Z</time>
        <extensions><gpxtpx:TrackPointExtension><gpxtpx:hr>163</gpxtpx:hr></gpxtpx:TrackPointExtension></extensions>
      </trkpt>
      <trkpt lat="41.3919739175" lon="2.20466869351">
        <ele>12.8</ele>
        <time>2011-05-31T15:12:27Z</time>
        <extensions><gpxtpx:TrackPointExtension><gpxtpx:hr>163</gpxtpx:hr></gpxtpx:TrackPointExtension></extensions>
      </trkpt>
      <trkpt lat="41.391840813" lon="2.20451605911">
        <ele>12.8</ele>
        <time>2011-05-31T15:12:33Z</time>
        <extensions><gpxtpx:TrackPointExtension><gpxtpx:hr>164</gpxtpx:hr></gpxtpx:TrackPointExtension></extensions>
      </trkpt>
      <trkpt lat="41.3917196107" lon="2.20435462372">
        <ele>12.8</ele>
        <time>2011-05-31T15:12:38Z</time>
        <extensions><gpxtpx:TrackPointExtension><gpxtpx:hr>164</gpxtpx:hr></gpxtpx:TrackPointExtension></extensions>
      </trkpt>
      <trkpt lat="41.3916051978" lon="2.2041644384">
        <ele>12.8</ele>
        <time>2011-05-31T15:12:43Z</time>
        <extensions><gpxtpx:TrackPointExtension><gpxtpx:hr>164</gpxtpx:hr></gpxtpx:TrackPointExtension></extensions>
      </trkpt>
      <trkpt lat="41.391483744" lon="2.20393217595">
        <ele>12.8</ele>
        <time>2011-05-31T15:12:49Z</time>
        <extensions><gpxtpx:TrackPointExtension><gpxtpx:hr>166</gpxtpx:hr></gpxtpx:TrackPointExtension></extensions>
      </trkpt>
      <trkpt lat="41.3913733544" lon="2.20372925016">
        <ele>12.8</ele>
        <time>2011-05-31T15:12:54Z</time>
        <extensions><gpxtpx:TrackPointExtension><gpxtpx:hr>166</gpxtpx:hr></gpxtpx:TrackPointExtension></extensions>
      </trkpt>
      <trkpt lat="41.3912776331" lon="2.20352582144">
        <ele>12.8</ele>
        <time>2011-05-31T15:12:59Z</time>
        <extensions><gpxtpx:TrackPointExtension><gpxtpx:hr>165</gpxtpx:hr></gpxtpx:TrackPointExtension></extensions>
      </trkpt>
      <trkpt lat="41.3911751225" lon="2.20331250209">
        <ele>12.8</ele>
        <time>2011-05-31T15:13:04Z</time>
        <extensions><gpxtpx:TrackPointExtension><gpxtpx:hr>165</gpxtpx:hr></gpxtpx:TrackPointExtension></extensions>
      </trkpt>
      <trkpt lat="41.3910908006" lon="2.20309222576">
        <ele>12.8</ele>
        <time>2011-05-31T15:13:09Z</time>
        <extensions><gpxtpx:TrackPointExtension><gpxtpx:hr>165</gpxtpx:hr></gpxtpx:TrackPointExtension></extensions>
      </trkpt>
      <trkpt lat="41.3910089932" lon="2.2028727038">
        <ele>12.8</ele>
        <time>2011-05-31T15:13:14Z</time>
        <extensions><gpxtpx:TrackPointExtension><gpxtpx:hr>166</gpxtpx:hr></gpxtpx:TrackPointExtension></extensions>
      </trkpt>
      <trkpt lat="41.3909281917" lon="2.20265452294">
        <ele>12.8</ele>
        <time>2011-05-31T15:13:19Z</time>
        <extensions><gpxtpx:TrackPointExtension><gpxtpx:hr>166</gpxtpx:hr></gpxtpx:TrackPointExtension></extensions>
      </trkpt>
      <trkpt lat="41.3908551854" lon="2.20243097767">
        <ele>12.8</ele>
        <time>2011-05-31T15:13:24Z</time>
        <extensions><gpxtpx:TrackPointExtension><gpxtpx:hr>166</gpxtpx:hr></gpxtpx:TrackPointExtension></extensions>
      </trkpt>
      <trkpt lat="41.3907546026" lon="2.20217323424">
        <ele>12.8</ele>
        <time>2011-05-31T15:13:30Z</time>
        <extensions><gpxtpx:TrackPointExtension><gpxtpx:hr>167</gpxtpx:hr></gpxtpx:TrackPointExtension></extensions>
      </trkpt>
      <trkpt lat="41.3906665926" lon="2.20196896734">
        <ele>12.8</ele>
        <time>2011-05-31T15:13:35Z</time>
        <extensions><gpxtpx:TrackPointExtension><gpxtpx:hr>167</gpxtpx:hr></gpxtpx:TrackPointExtension></extensions>
      </trkpt>
      <trkpt lat="41.3905577117" lon="2.20173871654">
        <ele>12.8</ele>
        <time>2011-05-31T15:13:41Z</time>
        <extensions><gpxtpx:TrackPointExtension><gpxtpx:hr>167</gpxtpx:hr></gpxtpx:TrackPointExtension></extensions>
      </trkpt>
      <trkpt lat="41.3904531894" lon="2.20155624258">
        <ele>12.8</ele>
        <time>2011-05-31T15:13:46Z</time>
        <extensions><gpxtpx:TrackPointExtension><gpxtpx:hr>166</gpxtpx:hr></gpxtpx:TrackPointExtension></extensions>
      </trkpt>
      <trkpt lat="41.3903179894" lon="2.20135122131">
        <ele>12.8</ele>
        <time>2011-05-31T15:13:52Z</time>
        <extensions><gpxtpx:TrackPointExtension><gpxtpx:hr>166</gpxtpx:hr></gpxtpx:TrackPointExtension></extensions>
      </trkpt>
      <trkpt lat="41.3901705518" lon="2.20114670295">
        <ele>12.8</ele>
        <time>2011-05-31T15:13:58Z</time>
        <extensions><gpxtpx:TrackPointExtension><gpxtpx:hr>166</gpxtpx:hr></gpxtpx:TrackPointExtension></extensions>
      </trkpt>
      <trkpt lat="41.3900286462" lon="2.20096976104">
        <ele>12.8</ele>
        <time>2011-05-31T15:14:04Z</time>
        <extensions><gpxtpx:TrackPointExtension><gpxtpx:hr>166</gpxtpx:hr></gpxtpx:TrackPointExtension></extensions>
      </trkpt>
      <trkpt lat="41.3898888361" lon="2.20079139421">
        <ele>12.8</ele>
        <time>2011-05-31T15:14:11Z</time>
        <extensions><gpxtpx:TrackPointExtension><gpxtpx:hr>167</gpxtpx:hr></gpxtpx:TrackPointExtension></extensions>
      </trkpt>
      <trkpt lat="41.3897452542" lon="2.20066683917">
        <ele>12.8</ele>
        <time>2011-05-31T15:14:17Z</time>
        <extensions><gpxtpx:TrackPointExtension><gpxtpx:hr>166</gpxtpx:hr></gpxtpx:TrackPointExtension></extensions>
      </trkpt>
      <trkpt lat="41.3895812204" lon="2.20054722946">
        <ele>12.8</ele>
        <time>2011-05-31T15:14:23Z</time>
        <extensions><gpxtpx:TrackPointExtension><gpxtpx:hr>164</gpxtpx:hr></gpxtpx:TrackPointExtension></extensions>
      </trkpt>
      <trkpt lat="41.3894085532" lon="2.2004366722">
        <ele>12.8</ele>
        <time>2011-05-31T15:14:29Z</time>
        <extensions><gpxtpx:TrackPointExtension><gpxtpx:hr>164</gpxtpx:hr></gpxtpx:TrackPointExtension></extensions>
      </trkpt>
      <trkpt lat="41.3892756163" lon="2.20036131892">
        <ele>12.8</ele>
        <time>2011-05-31T15:14:33Z</time>
        <extensions><gpxtpx:TrackPointExtension><gpxtpx:hr>165</gpxtpx:hr></gpxtpx:TrackPointExtension></extensions>
      </trkpt>
      <trkpt lat="41.3891012728" lon="2.2002218441">
        <ele>12.8</ele>
        <time>2011-05-31T15:14:39Z</time>
        <extensions><gpxtpx:TrackPointExtension><gpxtpx:hr>165</gpxtpx:hr></gpxtpx:TrackPointExtension></extensions>
      </trkpt>
      <trkpt lat="41.3889935654" lon="2.20014799956">
        <ele>12.8</ele>
        <time>2011-05-31T15:14:43Z</time>
        <extensions><gpxtpx:TrackPointExtension><gpxtpx:hr>166</gpxtpx:hr></gpxtpx:TrackPointExtension></extensions>
      </trkpt>
      <trkpt lat="41.3888314594" lon="2.1999924315">
        <ele>12.8</ele>
        <time>2011-05-31T15:14:49Z</time>
        <extensions><gpxtpx:TrackPointExtension><gpxtpx:hr>165</gpxtpx:hr></gpxtpx:TrackPointExtension></extensions>
      </trkpt>
      <trkpt lat="41.3887147834" lon="2.1998834668">
        <ele>12.8</ele>
        <time>2011-05-31T15:14:53Z</time>
        <extensions><gpxtpx:TrackPointExtension><gpxtpx:hr>165</gpxtpx:hr></gpxtpx:TrackPointExtension></extensions>
      </trkpt>
      <trkpt lat="41.3886092553" lon="2.19975539137">
        <ele>12.8</ele>
        <time>2011-05-31T15:14:57Z</time>
        <extensions><gpxtpx:TrackPointExtension><gpxtpx:hr>167</gpxtpx:hr></gpxtpx:TrackPointExtension></extensions>
      </trkpt>
      <trkpt lat="41.3884508373" lon="2.19957543197">
        <ele>12.8</ele>
        <time>2011-05-31T15:15:03Z</time>
        <extensions><gpxtpx:TrackPointExtension><gpxtpx:hr>168</gpxtpx:hr></gpxtpx:TrackPointExtension></extensions>
      </trkpt>
      <trkpt lat="41.3883148829" lon="2.19940829689">
        <ele>12.8</ele>
        <time>2011-05-31T15:15:08Z</time>
        <extensions><gpxtpx:TrackPointExtension><gpxtpx:hr>168</gpxtpx:hr></gpxtpx:TrackPointExtension></extensions>
      </trkpt>
      <trkpt lat="41.3882008891" lon="2.19920956204">
        <ele>12.8</ele>
        <time>2011-05-31T15:15:13Z</time>
        <extensions><gpxtpx:TrackPointExtension><gpxtpx:hr>168</gpxtpx:hr></gpxtpx:TrackPointExtension></extensions>
      </trkpt>
      <trkpt lat="41.3880614143" lon="2.19903580525">
        <ele>12.8</ele>
        <time>2011-05-31T15:15:18Z</time>
        <extensions><gpxtpx:TrackPointExtension><gpxtpx:hr>168</gpxtpx:hr></gpxtpx:TrackPointExtension></extensions>
      </trkpt>
      <trkpt lat="41.3879263819" lon="2.19887152001">
        <ele>12.8</ele>
        <time>2011-05-31T15:15:23Z</time>
        <extensions><gpxtpx:TrackPointExtension><gpxtpx:hr>169</gpxtpx:hr></gpxtpx:TrackPointExtension></extensions>
      </trkpt>
      <trkpt lat="41.3877806206" lon="2.19868183761">
        <ele>12.8</ele>
        <time>2011-05-31T15:15:29Z</time>
        <extensions><gpxtpx:TrackPointExtension><gpxtpx:hr>168</gpxtpx:hr></gpxtpx:TrackPointExtension></extensions>
      </trkpt>
      <trkpt lat="41.3876338535" lon="2.19853196924">
        <ele>12.8</ele>
        <time>2011-05-31T15:15:34Z</time>
        <extensions><gpxtpx:TrackPointExtension><gpxtpx:hr>167</gpxtpx:hr></gpxtpx:TrackPointExtension></extensions>
      </trkpt>
      <trkpt lat="41.3874973962" lon="2.19837480862">
        <ele>12.8</ele>
        <time>2011-05-31T15:15:39Z</time>
        <extensions><gpxtpx:TrackPointExtension><gpxtpx:hr>166</gpxtpx:hr></gpxtpx:TrackPointExtension></extensions>
      </trkpt>
      <trkpt lat="41.3873519703" lon="2.19822770627">
        <ele>12.8</ele>
        <time>2011-05-31T15:15:44Z</time>
        <extensions><gpxtpx:TrackPointExtension><gpxtpx:hr>166</gpxtpx:hr></gpxtpx:TrackPointExtension></extensions>
      </trkpt>
      <trkpt lat="41.3872263256" lon="2.19806518123">
        <ele>12.8</ele>
        <time>2011-05-31T15:15:49Z</time>
        <extensions><gpxtpx:TrackPointExtension><gpxtpx:hr>166</gpxtpx:hr></gpxtpx:TrackPointExtension></extensions>
      </trkpt>
      <trkpt lat="41.3870865993" lon="2.19788287491">
        <ele>13.6</ele>
        <time>2011-05-31T15:15:55Z</time>
        <extensions><gpxtpx:TrackPointExtension><gpxtpx:hr>165</gpxtpx:hr></gpxtpx:TrackPointExtension></extensions>
      </trkpt>
      <trkpt lat="41.3869740304" lon="2.19770459189">
        <ele>14.2</ele>
        <time>2011-05-31T15:16:01Z</time>
        <extensions><gpxtpx:TrackPointExtension><gpxtpx:hr>164</gpxtpx:hr></gpxtpx:TrackPointExtension></extensions>
      </trkpt>
      <trkpt lat="41.3869508125" lon="2.19769830547">
        <ele>14.2</ele>
        <time>2011-05-31T15:16:02Z</time>
        <extensions><gpxtpx:TrackPointExtension><gpxtpx:hr>165</gpxtpx:hr></gpxtpx:TrackPointExtension></extensions>
      </trkpt>
      <trkpt lat="41.3868928098" lon="2.19776494157">
        <ele>14.4</ele>
        <time>2011-05-31T15:16:05Z</time>
        <extensions><gpxtpx:TrackPointExtension><gpxtpx:hr>164</gpxtpx:hr></gpxtpx:TrackPointExtension></extensions>
      </trkpt>
      <trkpt lat="41.3868712683" lon="2.19778924908">
        <ele>14.4</ele>
        <time>2011-05-31T15:16:06Z</time>
        <extensions><gpxtpx:TrackPointExtension><gpxtpx:hr>164</gpxtpx:hr></gpxtpx:TrackPointExtension></extensions>
      </trkpt>
      <trkpt lat="41.3867396725" lon="2.19795328287">
        <ele>14.6</ele>
        <time>2011-05-31T15:16:12Z</time>
        <extensions><gpxtpx:TrackPointExtension><gpxtpx:hr>163</gpxtpx:hr></gpxtpx:TrackPointExtension></extensions>
      </trkpt>
      <trkpt lat="41.3865999462" lon="2.19815159862">
        <ele>14.8</ele>
        <time>2011-05-31T15:16:18Z</time>
        <extensions><gpxtpx:TrackPointExtension><gpxtpx:hr>163</gpxtpx:hr></gpxtpx:TrackPointExtension></extensions>
      </trkpt>
      <trkpt lat="41.3865553545" lon="2.19821848618">
        <ele>14.8</ele>
        <time>2011-05-31T15:16:20Z</time>
        <extensions><gpxtpx:TrackPointExtension><gpxtpx:hr>164</gpxtpx:hr></gpxtpx:TrackPointExtension></extensions>
      </trkpt>
      <trkpt lat="41.3864068272" lon="2.19836164903">
        <ele>14.8</ele>
        <time>2011-05-31T15:16:26Z</time>
        <extensions><gpxtpx:TrackPointExtension><gpxtpx:hr>163</gpxtpx:hr></gpxtpx:TrackPointExtension></extensions>
      </trkpt>
      <trkpt lat="41.3863666779" lon="2.19840875531">
        <ele>14.8</ele>
        <time>2011-05-31T15:16:28Z</time>
        <extensions><gpxtpx:TrackPointExtension><gpxtpx:hr>163</gpxtpx:hr></gpxtpx:TrackPointExtension></extensions>
      </trkpt>
      <trkpt lat="41.3862812663" lon="2.19833968846">
        <ele>14.8</ele>
        <time>2011-05-31T15:16:33Z</time>
        <extensions><gpxtpx:TrackPointExtension><gpxtpx:hr>163</gpxtpx:hr></gpxtpx:TrackPointExtension></extensions>
      </trkpt>
      <trkpt lat="41.386213373" lon="2.19826098241">
        <ele>14.8</ele>
        <time>2011-05-31T15:16:36Z</time>
        <extensions><gpxtpx:TrackPointExtension><gpxtpx:hr>162</gpxtpx:hr></gpxtpx:TrackPointExtension></extensions>
      </trkpt>
      <trkpt lat="41.3861914962" lon="2.19823332215">
        <ele>14.8</ele>
        <time>2011-05-31T15:16:37Z</time>
        <extensions><gpxtpx:TrackPointExtension><gpxtpx:hr>161</gpxtpx:hr></gpxtpx:TrackPointExtension></extensions>
      </trkpt>
      <trkpt lat="41.3860561285" lon="2.19804933944">
        <ele>14.8</ele>
        <time>2011-05-31T15:16:43Z</time>
        <extensions><gpxtpx:TrackPointExtension><gpxtpx:hr>160</gpxtpx:hr></gpxtpx:TrackPointExtension></extensions>
      </trkpt>
      <trkpt lat="41.3859299809" lon="2.19785881885">
        <ele>14.8</ele>
        <time>2011-05-31T15:16:49Z</time>
        <extensions><gpxtpx:TrackPointExtension><gpxtpx:hr>160</gpxtpx:hr></gpxtpx:TrackPointExtension></extensions>
      </trkpt>
      <trkpt lat="41.385827135" lon="2.1977262172">
        <ele>14.8</ele>
        <time>2011-05-31T15:16:54Z</time>
        <extensions><gpxtpx:TrackPointExtension><gpxtpx:hr>160</gpxtpx:hr></gpxtpx:TrackPointExtension></extensions>
      </trkpt>
      <trkpt lat="41.3857676235" lon="2.19764801407">
        <ele>14.8</ele>
        <time>2011-05-31T15:16:58Z</time>
        <extensions><gpxtpx:TrackPointExtension><gpxtpx:hr>159</gpxtpx:hr></gpxtpx:TrackPointExtension></extensions>
      </trkpt>
      <trkpt lat="41.3857593254" lon="2.1976287357">
        <ele>14.8</ele>
        <time>2011-05-31T15:16:59Z</time>
        <extensions><gpxtpx:TrackPointExtension><gpxtpx:hr>159</gpxtpx:hr></gpxtpx:TrackPointExtension></extensions>
      </trkpt>
      <trkpt lat="41.3857004007" lon="2.19754290504">
        <ele>14.8</ele>
        <time>2011-05-31T15:17:03Z</time>
        <extensions><gpxtpx:TrackPointExtension><gpxtpx:hr>158</gpxtpx:hr></gpxtpx:TrackPointExtension></extensions>
      </trkpt>
      <trkpt lat="41.385637285" lon="2.1974624388">
        <ele>14.8</ele>
        <time>2011-05-31T15:17:06Z</time>
        <extensions><gpxtpx:TrackPointExtension><gpxtpx:hr>156</gpxtpx:hr></gpxtpx:TrackPointExtension></extensions>
      </trkpt>
      <trkpt lat="41.3855531307" lon="2.1973534741">
        <ele>14.8</ele>
        <time>2011-05-31T15:17:10Z</time>
        <extensions><gpxtpx:TrackPointExtension><gpxtpx:hr>152</gpxtpx:hr></gpxtpx:TrackPointExtension></extensions>
      </trkpt>
      <trkpt lat="41.385459924" lon="2.19722397375">
        <ele>14.8</ele>
        <time>2011-05-31T15:17:15Z</time>
        <extensions><gpxtpx:TrackPointExtension><gpxtpx:hr>150</gpxtpx:hr></gpxtpx:TrackPointExtension></extensions>
      </trkpt>
      <trkpt lat="41.3853229637" lon="2.19705080369">
        <ele>14.8</ele>
        <time>2011-05-31T15:17:21Z</time>
        <extensions><gpxtpx:TrackPointExtension><gpxtpx:hr>153</gpxtpx:hr></gpxtpx:TrackPointExtension></extensions>
      </trkpt>
      <trkpt lat="41.3851720895" lon="2.19686816209">
        <ele>14.8</ele>
        <time>2011-05-31T15:17:27Z</time>
        <extensions><gpxtpx:TrackPointExtension><gpxtpx:hr>153</gpxtpx:hr></gpxtpx:TrackPointExtension></extensions>
      </trkpt>
      <trkpt lat="41.3850249872" lon="2.19668308974">
        <ele>14.8</ele>
        <time>2011-05-31T15:17:33Z</time>
        <extensions><gpxtpx:TrackPointExtension><gpxtpx:hr>154</gpxtpx:hr></gpxtpx:TrackPointExtension></extensions>
      </trkpt>
      <trkpt lat="41.3848854285" lon="2.19648259469">
        <ele>14.8</ele>
        <time>2011-05-31T15:17:39Z</time>
        <extensions><gpxtpx:TrackPointExtension><gpxtpx:hr>154</gpxtpx:hr></gpxtpx:TrackPointExtension></extensions>
      </trkpt>
      <trkpt lat="41.3847457861" lon="2.19628117763">
        <ele>14.8</ele>
        <time>2011-05-31T15:17:45Z</time>
        <extensions><gpxtpx:TrackPointExtension><gpxtpx:hr>155</gpxtpx:hr></gpxtpx:TrackPointExtension></extensions>
      </trkpt>
      <trkpt lat="41.3846321275" lon="2.19606702009">
        <ele>15.8</ele>
        <time>2011-05-31T15:17:51Z</time>
        <extensions><gpxtpx:TrackPointExtension><gpxtpx:hr>155</gpxtpx:hr></gpxtpx:TrackPointExtension></extensions>
      </trkpt>
      <trkpt lat="41.3845542597" lon="2.19595352916">
        <ele>16.2</ele>
        <time>2011-05-31T15:17:55Z</time>
        <extensions><gpxtpx:TrackPointExtension><gpxtpx:hr>155</gpxtpx:hr></gpxtpx:TrackPointExtension></extensions>
      </trkpt>
      <trkpt lat="41.384412857" lon="2.1957825384">
        <ele>16.4</ele>
        <time>2011-05-31T15:18:01Z</time>
        <extensions><gpxtpx:TrackPointExtension><gpxtpx:hr>154</gpxtpx:hr></gpxtpx:TrackPointExtension></extensions>
      </trkpt>
      <trkpt lat="41.3842510863" lon="2.19565781573">
        <ele>16.6</ele>
        <time>2011-05-31T15:18:07Z</time>
        <extensions><gpxtpx:TrackPointExtension><gpxtpx:hr>152</gpxtpx:hr></gpxtpx:TrackPointExtension></extensions>
      </trkpt>
      <trkpt lat="41.384080347" lon="2.19557114689">
        <ele>16.8</ele>
        <time>2011-05-31T15:18:13Z</time>
        <extensions><gpxtpx:TrackPointExtension><gpxtpx:hr>151</gpxtpx:hr></gpxtpx:TrackPointExtension></extensions>
      </trkpt>
      <trkpt lat="41.383902064" lon="2.19548615442">
        <ele>16.8</ele>
        <time>2011-05-31T15:18:19Z</time>
        <extensions><gpxtpx:TrackPointExtension><gpxtpx:hr>150</gpxtpx:hr></gpxtpx:TrackPointExtension></extensions>
      </trkpt>
      <trkpt lat="41.3837127169" lon="2.19538523634">
        <ele>16.8</ele>
        <time>2011-05-31T15:18:25Z</time>
        <extensions><gpxtpx:TrackPointExtension><gpxtpx:hr>151</gpxtpx:hr></gpxtpx:TrackPointExtension></extensions>
      </trkpt>
      <trkpt lat="41.383521861" lon="2.19527727747">
        <ele>16.8</ele>
        <time>2011-05-31T15:18:31Z</time>
        <extensions><gpxtpx:TrackPointExtension><gpxtpx:hr>153</gpxtpx:hr></gpxtpx:TrackPointExtension></extensions>
      </trkpt>
      <trkpt lat="41.3833381298" lon="2.19516898332">
        <ele>16.8</ele>
        <time>2011-05-31T15:18:37Z</time>
        <extensions><gpxtpx:TrackPointExtension><gpxtpx:hr>155</gpxtpx:hr></gpxtpx:TrackPointExtension></extensions>
      </trkpt>
      <trkpt lat="41.383181975" lon="2.19506731088">
        <ele>16.8</ele>
        <time>2011-05-31T15:18:42Z</time>
        <extensions><gpxtpx:TrackPointExtension><gpxtpx:hr>157</gpxtpx:hr></gpxtpx:TrackPointExtension></extensions>
      </trkpt>
      <trkpt lat="41.3829857547" lon="2.19495725653">
        <ele>16.8</ele>
        <time>2011-05-31T15:18:48Z</time>
        <extensions><gpxtpx:TrackPointExtension><gpxtpx:hr>157</gpxtpx:hr></gpxtpx:TrackPointExtension></extensions>
      </trkpt>
      <trkpt lat="41.3827917976" lon="2.19484577726">
        <ele>16.8</ele>
        <time>2011-05-31T15:18:54Z</time>
        <extensions><gpxtpx:TrackPointExtension><gpxtpx:hr>158</gpxtpx:hr></gpxtpx:TrackPointExtension></extensions>
      </trkpt>
      <trkpt lat="41.3826112514" lon="2.19473329216">
        <ele>16.8</ele>
        <time>2011-05-31T15:19:00Z</time>
        <extensions><gpxtpx:TrackPointExtension><gpxtpx:hr>159</gpxtpx:hr></gpxtpx:TrackPointExtension></extensions>
      </trkpt>
      <trkpt lat="41.3824224072" lon="2.19461778958">
        <ele>16.8</ele>
        <time>2011-05-31T15:19:06Z</time>
        <extensions><gpxtpx:TrackPointExtension><gpxtpx:hr>160</gpxtpx:hr></gpxtpx:TrackPointExtension></extensions>
      </trkpt>
      <trkpt lat="41.3822338983" lon="2.19450287373">
        <ele>16.8</ele>
        <time>2011-05-31T15:19:12Z</time>
        <extensions><gpxtpx:TrackPointExtension><gpxtpx:hr>159</gpxtpx:hr></gpxtpx:TrackPointExtension></extensions>
      </trkpt>
      <trkpt lat="41.3820390191" lon="2.19438225819">
        <ele>16.8</ele>
        <time>2011-05-31T15:19:18Z</time>
        <extensions><gpxtpx:TrackPointExtension><gpxtpx:hr>159</gpxtpx:hr></gpxtpx:TrackPointExtension></extensions>
      </trkpt>
      <trkpt lat="41.3818396975" lon="2.19427228766">
        <ele>16.8</ele>
        <time>2011-05-31T15:19:24Z</time>
        <extensions><gpxtpx:TrackPointExtension><gpxtpx:hr>160</gpxtpx:hr></gpxtpx:TrackPointExtension></extensions>
      </trkpt>
      <trkpt lat="41.3816726463" lon="2.19417195632">
        <ele>16.8</ele>
        <time>2011-05-31T15:19:29Z</time>
        <extensions><gpxtpx:TrackPointExtension><gpxtpx:hr>161</gpxtpx:hr></gpxtpx:TrackPointExtension></extensions>
      </trkpt>
      <trkpt lat="41.3814946147" lon="2.19406785312">
        <ele>16.8</ele>
        <time>2011-05-31T15:19:34Z</time>
        <extensions><gpxtpx:TrackPointExtension><gpxtpx:hr>163</gpxtpx:hr></gpxtpx:TrackPointExtension></extensions>
      </trkpt>
      <trkpt lat="41.3813318382" lon="2.1939574635">
        <ele>16.8</ele>
        <time>2011-05-31T15:19:39Z</time>
        <extensions><gpxtpx:TrackPointExtension><gpxtpx:hr>164</gpxtpx:hr></gpxtpx:TrackPointExtension></extensions>
      </trkpt>
      <trkpt lat="41.381166631" lon="2.19383634504">
        <ele>16.8</ele>
        <time>2011-05-31T15:19:44Z</time>
        <extensions><gpxtpx:TrackPointExtension><gpxtpx:hr>165</gpxtpx:hr></gpxtpx:TrackPointExtension></extensions>
      </trkpt>
      <trkpt lat="41.3809874259" lon="2.1937373548">
        <ele>16.8</ele>
        <time>2011-05-31T15:19:49Z</time>
        <extensions><gpxtpx:TrackPointExtension><gpxtpx:hr>167</gpxtpx:hr></gpxtpx:TrackPointExtension></extensions>
      </trkpt>
      <trkpt lat="41.380810484" lon="2.19363123995">
        <ele>16.8</ele>
        <time>2011-05-31T15:19:54Z</time>
        <extensions><gpxtpx:TrackPointExtension><gpxtpx:hr>168</gpxtpx:hr></gpxtpx:TrackPointExtension></extensions>
      </trkpt>
      <trkpt lat="41.3806439357" lon="2.19352520892">
        <ele>16.8</ele>
        <time>2011-05-31T15:19:59Z</time>
        <extensions><gpxtpx:TrackPointExtension><gpxtpx:hr>168</gpxtpx:hr></gpxtpx:TrackPointExtension></extensions>
      </trkpt>
      <trkpt lat="41.3804723582" lon="2.19341523839">
        <ele>16.8</ele>
        <time>2011-05-31T15:20:04Z</time>
        <extensions><gpxtpx:TrackPointExtension><gpxtpx:hr>168</gpxtpx:hr></gpxtpx:TrackPointExtension></extensions>
      </trkpt>
      <trkpt lat="41.3802742101" lon="2.19329772415">
        <ele>16.8</ele>
        <time>2011-05-31T15:20:10Z</time>
        <extensions><gpxtpx:TrackPointExtension><gpxtpx:hr>168</gpxtpx:hr></gpxtpx:TrackPointExtension></extensions>
      </trkpt>
      <trkpt lat="41.3800776545" lon="2.1931832274">
        <ele>16.8</ele>
        <time>2011-05-31T15:20:16Z</time>
        <extensions><gpxtpx:TrackPointExtension><gpxtpx:hr>168</gpxtpx:hr></gpxtpx:TrackPointExtension></extensions>
      </trkpt>
      <trkpt lat="41.3799289596" lon="2.19307862128">
        <ele>16.8</ele>
        <time>2011-05-31T15:20:21Z</time>
        <extensions><gpxtpx:TrackPointExtension><gpxtpx:hr>168</gpxtpx:hr></gpxtpx:TrackPointExtension></extensions>
      </trkpt>
      <trkpt lat="41.37974263" lon="2.19295658082">
        <ele>16.8</ele>
        <time>2011-05-31T15:20:27Z</time>
        <extensions><gpxtpx:TrackPointExtension><gpxtpx:hr>168</gpxtpx:hr></gpxtpx:TrackPointExtension></extensions>
      </trkpt>
      <trkpt lat="41.3795688732" lon="2.19286102716">
        <ele>16.8</ele>
        <time>2011-05-31T15:20:32Z</time>
        <extensions><gpxtpx:TrackPointExtension><gpxtpx:hr>168</gpxtpx:hr></gpxtpx:TrackPointExtension></extensions>
      </trkpt>
      <trkpt lat="41.3793959546" lon="2.19275331974">
        <ele>16.8</ele>
        <time>2011-05-31T15:20:37Z</time>
        <extensions><gpxtpx:TrackPointExtension><gpxtpx:hr>168</gpxtpx:hr></gpxtpx:TrackPointExtension></extensions>
      </trkpt>
      <trkpt lat="41.3792244609" lon="2.19264376831">
        <ele>16.8</ele>
        <time>2011-05-31T15:20:42Z</time>
        <extensions><gpxtpx:TrackPointExtension><gpxtpx:hr>169</gpxtpx:hr></gpxtpx:TrackPointExtension></extensions>
      </trkpt>
      <trkpt lat="41.3790568229" lon="2.19253279196">
        <ele>16.8</ele>
        <time>2011-05-31T15:20:47Z</time>
        <extensions><gpxtpx:TrackPointExtension><gpxtpx:hr>169</gpxtpx:hr></gpxtpx:TrackPointExtension></extensions>
      </trkpt>
      <trkpt lat="41.3790225409" lon="2.19251234012">
        <ele>16.8</ele>
        <time>2011-05-31T15:20:48Z</time>
        <extensions><gpxtpx:TrackPointExtension><gpxtpx:hr>169</gpxtpx:hr></gpxtpx:TrackPointExtension></extensions>
      </trkpt>
      <trkpt lat="41.3788378039" lon="2.19238870709">
        <ele>16.8</ele>
        <time>2011-05-31T15:20:54Z</time>
        <extensions><gpxtpx:TrackPointExtension><gpxtpx:hr>169</gpxtpx:hr></gpxtpx:TrackPointExtension></extensions>
      </trkpt>
      <trkpt lat="41.3787205411" lon="2.19228787284">
        <ele>16.8</ele>
        <time>2011-05-31T15:20:58Z</time>
        <extensions><gpxtpx:TrackPointExtension><gpxtpx:hr>169</gpxtpx:hr></gpxtpx:TrackPointExtension></extensions>
      </trkpt>
      <trkpt lat="41.3786003446" lon="2.19220355092">
        <ele>16.8</ele>
        <time>2011-05-31T15:21:02Z</time>
        <extensions><gpxtpx:TrackPointExtension><gpxtpx:hr>168</gpxtpx:hr></gpxtpx:TrackPointExtension></extensions>
      </trkpt>
      <trkpt lat="41.3785347982" lon="2.19215870776">
        <ele>16.8</ele>
        <time>2011-05-31T15:21:04Z</time>
        <extensions><gpxtpx:TrackPointExtension><gpxtpx:hr>168</gpxtpx:hr></gpxtpx:TrackPointExtension></extensions>
      </trkpt>
      <trkpt lat="41.3783467083" lon="2.19201747274">
        <ele>16.8</ele>
        <time>2011-05-31T15:21:10Z</time>
        <extensions><gpxtpx:TrackPointExtension><gpxtpx:hr>168</gpxtpx:hr></gpxtpx:TrackPointExtension></extensions>
      </trkpt>
      <trkpt lat="41.3781825907" lon="2.19191512974">
        <ele>16.2</ele>
        <time>2011-05-31T15:21:15Z</time>
        <extensions><gpxtpx:TrackPointExtension><gpxtpx:hr>167</gpxtpx:hr></gpxtpx:TrackPointExtension></extensions>
      </trkpt>
      <trkpt lat="41.3779877954" lon="2.19181739679">
        <ele>15.6</ele>
        <time>2011-05-31T15:21:20Z</time>
        <extensions><gpxtpx:TrackPointExtension><gpxtpx:hr>167</gpxtpx:hr></gpxtpx:TrackPointExtension></extensions>
      </trkpt>
      <trkpt lat="41.3778075007" lon="2.19172134022">
        <ele>15.2</ele>
        <time>2011-05-31T15:21:25Z</time>
        <extensions><gpxtpx:TrackPointExtension><gpxtpx:hr>167</gpxtpx:hr></gpxtpx:TrackPointExtension></extensions>
      </trkpt>
      <trkpt lat="41.3776308941" lon="2.19162234998">
        <ele>14.4</ele>
        <time>2011-05-31T15:21:30Z</time>
        <extensions><gpxtpx:TrackPointExtension><gpxtpx:hr>168</gpxtpx:hr></gpxtpx:TrackPointExtension></extensions>
      </trkpt>
      <trkpt lat="41.3774542875" lon="2.1915236112">
        <ele>13.8</ele>
        <time>2011-05-31T15:21:35Z</time>
        <extensions><gpxtpx:TrackPointExtension><gpxtpx:hr>168</gpxtpx:hr></gpxtpx:TrackPointExtension></extensions>
      </trkpt>
      <trkpt lat="41.3772804468" lon="2.19142177111">
        <ele>13.4</ele>
        <time>2011-05-31T15:21:40Z</time>
        <extensions><gpxtpx:TrackPointExtension><gpxtpx:hr>167</gpxtpx:hr></gpxtpx:TrackPointExtension></extensions>
      </trkpt>
      <trkpt lat="41.3770997331" lon="2.19132361906">
        <ele>13</ele>
        <time>2011-05-31T15:21:45Z</time>
        <extensions><gpxtpx:TrackPointExtension><gpxtpx:hr>168</gpxtpx:hr></gpxtpx:TrackPointExtension></extensions>
      </trkpt>
      <trkpt lat="41.3769182649" lon="2.19122203043">
        <ele>13</ele>
        <time>2011-05-31T15:21:50Z</time>
        <extensions><gpxtpx:TrackPointExtension><gpxtpx:hr>168</gpxtpx:hr></gpxtpx:TrackPointExtension></extensions>
      </trkpt>
      <trkpt lat="41.3767541473" lon="2.19111700523">
        <ele>12.8</ele>
        <time>2011-05-31T15:21:55Z</time>
        <extensions><gpxtpx:TrackPointExtension><gpxtpx:hr>168</gpxtpx:hr></gpxtpx:TrackPointExtension></extensions>
      </trkpt>
      <trkpt lat="41.3765847491" lon="2.19101449459">
        <ele>12.8</ele>
        <time>2011-05-31T15:22:00Z</time>
        <extensions><gpxtpx:TrackPointExtension><gpxtpx:hr>169</gpxtpx:hr></gpxtpx:TrackPointExtension></extensions>
      </trkpt>
      <trkpt lat="41.3763870201" lon="2.19090091984">
        <ele>12.8</ele>
        <time>2011-05-31T15:22:06Z</time>
        <extensions><gpxtpx:TrackPointExtension><gpxtpx:hr>169</gpxtpx:hr></gpxtpx:TrackPointExtension></extensions>
      </trkpt>
      <trkpt lat="41.3762156941" lon="2.19082212998">
        <ele>12.8</ele>
        <time>2011-05-31T15:22:11Z</time>
        <extensions><gpxtpx:TrackPointExtension><gpxtpx:hr>168</gpxtpx:hr></gpxtpx:TrackPointExtension></extensions>
      </trkpt>
      <trkpt lat="41.3760135227" lon="2.19073210838">
        <ele>12.8</ele>
        <time>2011-05-31T15:22:17Z</time>
        <extensions><gpxtpx:TrackPointExtension><gpxtpx:hr>169</gpxtpx:hr></gpxtpx:TrackPointExtension></extensions>
      </trkpt>
      <trkpt lat="41.3758183082" lon="2.19062314368">
        <ele>12.8</ele>
        <time>2011-05-31T15:22:23Z</time>
        <extensions><gpxtpx:TrackPointExtension><gpxtpx:hr>169</gpxtpx:hr></gpxtpx:TrackPointExtension></extensions>
      </trkpt>
      <trkpt lat="41.3756157177" lon="2.19054485673">
        <ele>12.8</ele>
        <time>2011-05-31T15:22:29Z</time>
        <extensions><gpxtpx:TrackPointExtension><gpxtpx:hr>169</gpxtpx:hr></gpxtpx:TrackPointExtension></extensions>
      </trkpt>
      <trkpt lat="41.3754443917" lon="2.19045885844">
        <ele>12.8</ele>
        <time>2011-05-31T15:22:34Z</time>
        <extensions><gpxtpx:TrackPointExtension><gpxtpx:hr>170</gpxtpx:hr></gpxtpx:TrackPointExtension></extensions>
      </trkpt>
      <trkpt lat="41.3752424717" lon="2.19034821736">
        <ele>12.8</ele>
        <time>2011-05-31T15:22:40Z</time>
        <extensions><gpxtpx:TrackPointExtension><gpxtpx:hr>170</gpxtpx:hr></gpxtpx:TrackPointExtension></extensions>
      </trkpt>
      <trkpt lat="41.3750684634" lon="2.19028024015">
        <ele>12.8</ele>
        <time>2011-05-31T15:22:45Z</time>
        <extensions><gpxtpx:TrackPointExtension><gpxtpx:hr>170</gpxtpx:hr></gpxtpx:TrackPointExtension></extensions>
      </trkpt>
      <trkpt lat="41.3748807927" lon="2.19021125711">
        <ele>12.8</ele>
        <time>2011-05-31T15:22:50Z</time>
        <extensions><gpxtpx:TrackPointExtension><gpxtpx:hr>171</gpxtpx:hr></gpxtpx:TrackPointExtension></extensions>
      </trkpt>
      <trkpt lat="41.3746927029" lon="2.19014780613">
        <ele>12.8</ele>
        <time>2011-05-31T15:22:55Z</time>
        <extensions><gpxtpx:TrackPointExtension><gpxtpx:hr>171</gpxtpx:hr></gpxtpx:TrackPointExtension></extensions>
      </trkpt>
      <trkpt lat="41.3745440918" lon="2.19001604266">
        <ele>12.8</ele>
        <time>2011-05-31T15:23:00Z</time>
        <extensions><gpxtpx:TrackPointExtension><gpxtpx:hr>171</gpxtpx:hr></gpxtpx:TrackPointExtension></extensions>
      </trkpt>
      <trkpt lat="41.3743874341" lon="2.1898349098">
        <ele>12.8</ele>
        <time>2011-05-31T15:23:06Z</time>
        <extensions><gpxtpx:TrackPointExtension><gpxtpx:hr>172</gpxtpx:hr></gpxtpx:TrackPointExtension></extensions>
      </trkpt>
      <trkpt lat="41.3742578499" lon="2.18972695093">
        <ele>12.8</ele>
        <time>2011-05-31T15:23:10Z</time>
        <extensions><gpxtpx:TrackPointExtension><gpxtpx:hr>172</gpxtpx:hr></gpxtpx:TrackPointExtension></extensions>
      </trkpt>
      <trkpt lat="41.3740871106" lon="2.18966090156">
        <ele>12.8</ele>
        <time>2011-05-31T15:23:15Z</time>
        <extensions><gpxtpx:TrackPointExtension><gpxtpx:hr>172</gpxtpx:hr></gpxtpx:TrackPointExtension></extensions>
      </trkpt>
      <trkpt lat="41.373883179" lon="2.18957641201">
        <ele>12.8</ele>
        <time>2011-05-31T15:23:21Z</time>
        <extensions><gpxtpx:TrackPointExtension><gpxtpx:hr>171</gpxtpx:hr></gpxtpx:TrackPointExtension></extensions>
      </trkpt>
      <trkpt lat="41.373699783" lon="2.18950726133">
        <ele>12.8</ele>
        <time>2011-05-31T15:23:26Z</time>
        <extensions><gpxtpx:TrackPointExtension><gpxtpx:hr>172</gpxtpx:hr></gpxtpx:TrackPointExtension></extensions>
      </trkpt>
      <trkpt lat="41.3735033951" lon="2.18945143788">
        <ele>12.8</ele>
        <time>2011-05-31T15:23:32Z</time>
        <extensions><gpxtpx:TrackPointExtension><gpxtpx:hr>170</gpxtpx:hr></gpxtpx:TrackPointExtension></extensions>
      </trkpt>
      <trkpt lat="41.3733231004" lon="2.18941070184">
        <ele>12.6</ele>
        <time>2011-05-31T15:23:37Z</time>
        <extensions><gpxtpx:TrackPointExtension><gpxtpx:hr>171</gpxtpx:hr></gpxtpx:TrackPointExtension></extensions>
      </trkpt>
      <trkpt lat="41.3731188335" lon="2.18937222892">
        <ele>11.8</ele>
        <time>2011-05-31T15:23:43Z</time>
        <extensions><gpxtpx:TrackPointExtension><gpxtpx:hr>171</gpxtpx:hr></gpxtpx:TrackPointExtension></extensions>
      </trkpt>
      <trkpt lat="41.372926888" lon="2.18934825669">
        <ele>11.2</ele>
        <time>2011-05-31T15:23:48Z</time>
        <extensions><gpxtpx:TrackPointExtension><gpxtpx:hr>171</gpxtpx:hr></gpxtpx:TrackPointExtension></extensions>
      </trkpt>
      <trkpt lat="41.3727441626" lon="2.18932587701">
        <ele>11</ele>
        <time>2011-05-31T15:23:53Z</time>
        <extensions><gpxtpx:TrackPointExtension><gpxtpx:hr>172</gpxtpx:hr></gpxtpx:TrackPointExtension></extensions>
      </trkpt>
      <trkpt lat="41.3725554022" lon="2.18929955785">
        <ele>10.8</ele>
        <time>2011-05-31T15:23:58Z</time>
        <extensions><gpxtpx:TrackPointExtension><gpxtpx:hr>172</gpxtpx:hr></gpxtpx:TrackPointExtension></extensions>
      </trkpt>
      <trkpt lat="41.3723594334" lon="2.18927349014">
        <ele>10.8</ele>
        <time>2011-05-31T15:24:03Z</time>
        <extensions><gpxtpx:TrackPointExtension><gpxtpx:hr>172</gpxtpx:hr></gpxtpx:TrackPointExtension></extensions>
      </trkpt>
      <trkpt lat="41.3721548312" lon="2.18924532696">
        <ele>10.4</ele>
        <time>2011-05-31T15:24:08Z</time>
        <extensions><gpxtpx:TrackPointExtension><gpxtpx:hr>172</gpxtpx:hr></gpxtpx:TrackPointExtension></extensions>
      </trkpt>
      <trkpt lat="41.3719567669" lon="2.18920987152">
        <ele>9.6</ele>
        <time>2011-05-31T15:24:13Z</time>
        <extensions><gpxtpx:TrackPointExtension><gpxtpx:hr>173</gpxtpx:hr></gpxtpx:TrackPointExtension></extensions>
      </trkpt>
      <trkpt lat="41.3717969241" lon="2.1891859831">
        <ele>9.2</ele>
        <time>2011-05-31T15:24:17Z</time>
        <extensions><gpxtpx:TrackPointExtension><gpxtpx:hr>173</gpxtpx:hr></gpxtpx:TrackPointExtension></extensions>
      </trkpt>
      <trkpt lat="41.3715486522" lon="2.1891409723">
        <ele>9</ele>
        <time>2011-05-31T15:24:23Z</time>
        <extensions><gpxtpx:TrackPointExtension><gpxtpx:hr>174</gpxtpx:hr></gpxtpx:TrackPointExtension></extensions>
      </trkpt>
      <trkpt lat="41.3713475704" lon="2.18911088128">
        <ele>8.8</ele>
        <time>2011-05-31T15:24:28Z</time>
        <extensions><gpxtpx:TrackPointExtension><gpxtpx:hr>174</gpxtpx:hr></gpxtpx:TrackPointExtension></extensions>
      </trkpt>
      <trkpt lat="41.3711584747" lon="2.1890721569">
        <ele>8.8</ele>
        <time>2011-05-31T15:24:33Z</time>
        <extensions><gpxtpx:TrackPointExtension><gpxtpx:hr>173</gpxtpx:hr></gpxtpx:TrackPointExtension></extensions>
      </trkpt>
      <trkpt lat="41.3709572253" lon="2.18905505783">
        <ele>8.6</ele>
        <time>2011-05-31T15:24:38Z</time>
        <extensions><gpxtpx:TrackPointExtension><gpxtpx:hr>174</gpxtpx:hr></gpxtpx:TrackPointExtension></extensions>
      </trkpt>
      <trkpt lat="41.3707627652" lon="2.18903351634">
        <ele>8</ele>
        <time>2011-05-31T15:24:43Z</time>
        <extensions><gpxtpx:TrackPointExtension><gpxtpx:hr>173</gpxtpx:hr></gpxtpx:TrackPointExtension></extensions>
      </trkpt>
      <trkpt lat="41.3705698977" lon="2.18900937647">
        <ele>7.4</ele>
        <time>2011-05-31T15:24:48Z</time>
        <extensions><gpxtpx:TrackPointExtension><gpxtpx:hr>173</gpxtpx:hr></gpxtpx:TrackPointExtension></extensions>
      </trkpt>
      <trkpt lat="41.3703859988" lon="2.18898934373">
        <ele>7</ele>
        <time>2011-05-31T15:24:53Z</time>
        <extensions><gpxtpx:TrackPointExtension><gpxtpx:hr>172</gpxtpx:hr></gpxtpx:TrackPointExtension></extensions>
      </trkpt>
      <trkpt lat="41.3701879345" lon="2.18896788607">
        <ele>6.8</ele>
        <time>2011-05-31T15:24:58Z</time>
        <extensions><gpxtpx:TrackPointExtension><gpxtpx:hr>172</gpxtpx:hr></gpxtpx:TrackPointExtension></extensions>
      </trkpt>
      <trkpt lat="41.3700508066" lon="2.18894475202">
        <ele>6.8</ele>
        <time>2011-05-31T15:25:02Z</time>
        <extensions><gpxtpx:TrackPointExtension><gpxtpx:hr>171</gpxtpx:hr></gpxtpx:TrackPointExtension></extensions>
      </trkpt>
      <trkpt lat="41.3700220567" lon="2.18893905233">
        <ele>6.8</ele>
        <time>2011-05-31T15:25:03Z</time>
        <extensions><gpxtpx:TrackPointExtension><gpxtpx:hr>171</gpxtpx:hr></gpxtpx:TrackPointExtension></extensions>
      </trkpt>
      <trkpt lat="41.3698949871" lon="2.18892740149">
        <ele>6.6</ele>
        <time>2011-05-31T15:25:08Z</time>
        <extensions><gpxtpx:TrackPointExtension><gpxtpx:hr>170</gpxtpx:hr></gpxtpx:TrackPointExtension></extensions>
      </trkpt>
      <trkpt lat="41.3698296083" lon="2.18896796989">
        <ele>6.6</ele>
        <time>2011-05-31T15:25:14Z</time>
        <extensions><gpxtpx:TrackPointExtension><gpxtpx:hr>169</gpxtpx:hr></gpxtpx:TrackPointExtension></extensions>
      </trkpt>
      <trkpt lat="41.3697762156" lon="2.18901750691">
        <ele>6.6</ele>
        <time>2011-05-31T15:25:21Z</time>
        <extensions><gpxtpx:TrackPointExtension><gpxtpx:hr>165</gpxtpx:hr></gpxtpx:TrackPointExtension></extensions>
      </trkpt>
      <trkpt lat="41.3696998565" lon="2.18907911388">
        <ele>6.6</ele>
        <time>2011-05-31T15:25:29Z</time>
        <extensions><gpxtpx:TrackPointExtension><gpxtpx:hr>160</gpxtpx:hr></gpxtpx:TrackPointExtension></extensions>
      </trkpt>
      <trkpt lat="41.3696493975" lon="2.18911549132">
        <ele>6.6</ele>
        <time>2011-05-31T15:25:34Z</time>
        <extensions><gpxtpx:TrackPointExtension><gpxtpx:hr>155</gpxtpx:hr></gpxtpx:TrackPointExtension></extensions>
      </trkpt>
      <trkpt lat="41.3696405965" lon="2.18912479523">
        <ele>6.6</ele>
        <time>2011-05-31T15:25:35Z</time>
        <extensions><gpxtpx:TrackPointExtension><gpxtpx:hr>153</gpxtpx:hr></gpxtpx:TrackPointExtension></extensions>
      </trkpt>
    </trkseg>
  </trk>
</gpx>